Observation data for Crane on 07/03/2020      Previous  Date  Next       Current Mesonet Observations  Soil Data  Daily Summary Page  Observations in Plain Language
KCR2 030500Z 17007KT 30/18 A30 RMK A01 T02950176  RH  049%=      5-min Rain = 0
KCR2 030501Z 18007KT 30/18 A30 RMK A01 T02950176  RH  049%=      5-min Rain = 0
KCR2 030502Z 17007KT 30/18 A30 RMK A01 T02950176  RH  049%=      5-min Rain = 0
KCR2 030503Z 17009KT 30/18 A30 RMK A01 T02950176  RH  049%=      5-min Rain = 0
KCR2 030504Z 17007KT 30/18 A30 RMK A01 T02950176  RH  049%=      5-min Rain = 0
KCR2 030505Z 17009KT 30/18 A30 RMK A01 T02950176  RH  049%=      5-min Rain = 0
KCR2 030506Z 16009KT 30/18 A30 RMK A01 T02950176  RH  049%=      5-min Rain = 0
KCR2 030507Z 17007KT 30/18 A30 RMK A01 T02950176  RH  049%=      5-min Rain = 0
KCR2 030508Z 16007KT 30/18 A30 RMK A01 T02950176  RH  049%=      5-min Rain = 0
KCR2 030509Z 16008KT 29/18 A30 RMK A01 T02940176  RH  049%=      5-min Rain = 0
KCR2 030510Z 16008KT 29/18 A30 RMK A01 T02940176  RH  049%=      5-min Rain = 0
KCR2 030511Z 16007KT 29/18 A30 RMK A01 T02940176  RH  049%=      5-min Rain = 0
KCR2 030512Z 16009KT 29/18 A30 RMK A01 T02940176  RH  049%=      5-min Rain = 0
KCR2 030513Z 16007KT 29/18 A30 RMK A01 T02940176  RH  049%=      5-min Rain = 0
KCR2 030514Z 16008KT 29/18 A30 RMK A01 T02940176  RH  049%=      5-min Rain = 0
KCR2 030515Z 17008KT 29/18 A30 RMK A01 T02940176  RH  049%=      5-min Rain = 0
KCR2 030516Z 17007KT 29/18 A30 RMK A01 T02940176  RH  049%=      5-min Rain = 0
KCR2 030517Z 17008KT 29/18 A30 RMK A01 T02940176  RH  049%=      5-min Rain = 0
KCR2 030518Z 16008KT 29/18 A30 RMK A01 T02940176  RH  049%=      5-min Rain = 0
KCR2 030519Z 17006KT 29/18 A30 RMK A01 T02940176  RH  049%=      5-min Rain = 0
KCR2 030520Z 16007KT 29/18 A30 RMK A01 T02940176  RH  049%=      5-min Rain = 0
KCR2 030521Z 17007KT 29/18 A30 RMK A01 T02940176  RH  049%=      5-min Rain = 0
KCR2 030522Z 18006KT 29/18 A30 RMK A01 T02940176  RH  049%=      5-min Rain = 0
KCR2 030523Z 17007KT 29/18 A30 RMK A01 T02940176  RH  049%=      5-min Rain = 0
KCR2 030524Z 17006KT 29/18 A30 RMK A01 T02940176  RH  049%=      5-min Rain = 0
KCR2 030525Z 17007KT 29/18 A30 RMK A01 T02940176  RH  049%=      5-min Rain = 0
KCR2 030526Z 17007KT 29/18 A30 RMK A01 T02930176  RH  049%=      5-min Rain = 0
KCR2 030527Z 17007KT 29/18 A30 RMK A01 T02930176  RH  049%=      5-min Rain = 0
KCR2 030528Z 17007KT 29/18 A30 RMK A01 T02930176  RH  049%=      5-min Rain = 0
KCR2 030529Z 17008KT 29/18 A30 RMK A01 T02930176  RH  049%=      5-min Rain = 0
KCR2 030530Z 16007KT 29/18 A30 RMK A01 T02930176  RH  049%=      5-min Rain = 0
KCR2 030531Z 16006KT 29/18 A30 RMK A01 T02930176  RH  049%=      5-min Rain = 0
KCR2 030532Z 17007KT 29/18 A30 RMK A01 T02930176  RH  049%=      5-min Rain = 0
KCR2 030533Z 16006KT 29/18 A30 RMK A01 T02930176  RH  049%=      5-min Rain = 0
KCR2 030534Z 16007KT 29/18 A30 RMK A01 T02930176  RH  049%=      5-min Rain = 0
KCR2 030535Z 16008KT 29/18 A30 RMK A01 T02930177  RH  049%=      5-min Rain = 0
KCR2 030536Z 17008KT 29/18 A30 RMK A01 T02930176  RH  049%=      5-min Rain = 0
KCR2 030537Z 17008KT 29/18 A30 RMK A01 T02930176  RH  049%=      5-min Rain = 0
KCR2 030538Z 17007KT 29/18 A30 RMK A01 T02930176  RH  049%=      5-min Rain = 0
KCR2 030539Z 17008KT 29/18 A30 RMK A01 T02930176  RH  049%=      5-min Rain = 0
KCR2 030540Z 17007KT 29/18 A30 RMK A01 T02930176  RH  049%=      5-min Rain = 0
KCR2 030541Z 17006KT 29/18 A30 RMK A01 T02920176  RH  050%=      5-min Rain = 0
KCR2 030542Z 17008KT 29/18 A30 RMK A01 T02920176  RH  050%=      5-min Rain = 0
KCR2 030543Z 17009KT 29/18 A30 RMK A01 T02920176  RH  050%=      5-min Rain = 0
KCR2 030544Z 17009KT 29/18 A30 RMK A01 T02920176  RH  049%=      5-min Rain = 0
KCR2 030545Z 16009KT 29/18 A30 RMK A01 T02920176  RH  049%=      5-min Rain = 0
KCR2 030546Z 17009KT 29/18 A30 RMK A01 T02920176  RH  049%=      5-min Rain = 0
KCR2 030547Z 17010KT 29/18 A30 RMK A01 T02920176  RH  049%=      5-min Rain = 0
KCR2 030548Z 17010KT 29/18 A30 RMK A01 T02920176  RH  049%=      5-min Rain = 0
KCR2 030549Z 17010KT 29/18 A30 RMK A01 T02920176  RH  049%=      5-min Rain = 0
KCR2 030550Z 16010KT 29/18 A30 RMK A01 T02920175  RH  049%=      5-min Rain = 0
KCR2 030551Z 17009KT 29/18 A30 RMK A01 T02920175  RH  049%=      5-min Rain = 0
KCR2 030552Z 17008KT 29/18 A30 RMK A01 T02920175  RH  049%=      5-min Rain = 0
KCR2 030553Z 17007KT 29/18 A30 RMK A01 T02920175  RH  049%=      5-min Rain = 0
KCR2 030554Z 17008KT 29/18 A30 RMK A01 T02920175  RH  049%=      5-min Rain = 0
KCR2 030555Z 17007KT 29/18 A30 RMK A01 T02910175  RH  049%=      5-min Rain = 0
KCR2 030556Z 17006KT 29/18 A30 RMK A01 T02920175  RH  049%=      5-min Rain = 0
KCR2 030557Z 17008KT 29/18 A30 RMK A01 T02910175  RH  049%=      5-min Rain = 0
KCR2 030558Z 16008KT 29/17 A30 RMK A01 T02910174  RH  049%=      5-min Rain = 0
KCR2 030559Z 16009KT 29/17 A30 RMK A01 T02910174  RH  049%=      5-min Rain = 0
KCR2 030600Z 17008KT 29/17 A30 RMK A01 T02910174  RH  049%=      5-min Rain = 0
KCR2 030601Z 16007KT 29/17 A30 RMK A01 T02910174  RH  049%=      5-min Rain = 0
KCR2 030602Z 16006KT 29/17 A30 RMK A01 T02910174  RH  049%=      5-min Rain = 0
KCR2 030603Z 16008KT 29/17 A30 RMK A01 T02900174  RH  049%=      5-min Rain = 0
KCR2 030604Z 16007KT 29/17 A30 RMK A01 T02900173  RH  049%=      5-min Rain = 0
KCR2 030605Z 16007KT 29/17 A30 RMK A01 T02900173  RH  049%=      5-min Rain = 0
KCR2 030606Z 15007KT 29/17 A30 RMK A01 T02910173  RH  049%=      5-min Rain = 0
KCR2 030607Z 15006KT 29/17 A30 RMK A01 T02900172  RH  049%=      5-min Rain = 0
KCR2 030608Z 16006KT 29/17 A30 RMK A01 T02910173  RH  049%=      5-min Rain = 0
KCR2 030609Z 15006KT 29/17 A30 RMK A01 T02900172  RH  049%=      5-min Rain = 0
KCR2 030610Z 15007KT 29/17 A3001 RMK A01 T02900172  RH  049%=      5-min Rain = 0
KCR2 030611Z 15006KT 29/17 A3001 RMK A01 T02900172  RH  049%=      5-min Rain = 0
KCR2 030612Z 14005KT 29/17 A3001 RMK A01 T02900172  RH  049%=      5-min Rain = 0
KCR2 030613Z 14006KT 29/17 A3001 RMK A01 T02900172  RH  049%=      5-min Rain = 0
KCR2 030614Z 14005KT 29/17 A3001 RMK A01 T02900172  RH  049%=      5-min Rain = 0
KCR2 030615Z 15006KT 29/17 A3001 RMK A01 T02890171  RH  049%=      5-min Rain = 0
KCR2 030616Z 14004KT 29/17 A3001 RMK A01 T02890172  RH  049%=      5-min Rain = 0
KCR2 030617Z 14005KT 29/17 A3001 RMK A01 T02890171  RH  049%=      5-min Rain = 0
KCR2 030618Z 15007KT 29/17 A3001 RMK A01 T02880171  RH  049%=      5-min Rain = 0
KCR2 030619Z 15008KT 29/17 A3001 RMK A01 T02880171  RH  049%=      5-min Rain = 0
KCR2 030620Z 15007KT 29/17 A3001 RMK A01 T02880170  RH  049%=      5-min Rain = 0
KCR2 030621Z 14006KT 29/17 A3001 RMK A01 T02890170  RH  049%=      5-min Rain = 0
KCR2 030622Z 14006KT 29/17 A30 RMK A01 T02890171  RH  049%=      5-min Rain = 0
KCR2 030623Z 14006KT 29/17 A30 RMK A01 T02890171  RH  049%=      5-min Rain = 0
KCR2 030624Z 14006KT 29/17 A30 RMK A01 T02890171  RH  049%=      5-min Rain = 0
KCR2 030625Z 14006KT 29/17 A30 RMK A01 T02890171  RH  049%=      5-min Rain = 0
KCR2 030626Z 13006KT 29/17 A3001 RMK A01 T02880170  RH  049%=      5-min Rain = 0
KCR2 030627Z 13006KT 29/17 A30 RMK A01 T02870170  RH  049%=      5-min Rain = 0
KCR2 030628Z 13005KT 29/17 A30 RMK A01 T02870170  RH  049%=      5-min Rain = 0
KCR2 030629Z 13006KT 29/17 A3001 RMK A01 T02860170  RH  049%=      5-min Rain = 0
KCR2 030630Z 13006KT 29/17 A3001 RMK A01 T02850170  RH  050%=      5-min Rain = 0
KCR2 030631Z 13005KT 29/17 A3001 RMK A01 T02850170  RH  050%=      5-min Rain = 0
KCR2 030632Z 13006KT 28/17 A30 RMK A01 T02840170  RH  050%=      5-min Rain = 0
KCR2 030633Z 13006KT 28/17 A30 RMK A01 T02840170  RH  050%=      5-min Rain = 0
KCR2 030634Z 13006KT 28/17 A30 RMK A01 T02830169  RH  050%=      5-min Rain = 0
KCR2 030635Z 13006KT 28/17 A30 RMK A01 T02830169  RH  050%=      5-min Rain = 0
KCR2 030636Z 13005KT 28/17 A30 RMK A01 T02820169  RH  050%=      5-min Rain = 0
KCR2 030637Z 13005KT 28/17 A30 RMK A01 T02820169  RH  050%=      5-min Rain = 0
KCR2 030638Z 13005KT 28/17 A30 RMK A01 T02820169  RH  050%=      5-min Rain = 0
KCR2 030639Z 13005KT 28/17 A30 RMK A01 T02820169  RH  050%=      5-min Rain = 0
KCR2 030640Z 13005KT 28/17 A30 RMK A01 T02810169  RH  051%=      5-min Rain = 0
KCR2 030641Z 13006KT 28/17 A30 RMK A01 T02810169  RH  051%=      5-min Rain = 0
KCR2 030642Z 12005KT 28/17 A30 RMK A01 T02800169  RH  051%=      5-min Rain = 0
KCR2 030643Z 12005KT 28/17 A30 RMK A01 T02800169  RH  051%=      5-min Rain = 0
KCR2 030644Z 12005KT 28/17 A30 RMK A01 T02790169  RH  051%=      5-min Rain = 0
KCR2 030645Z 12006KT 28/17 A30 RMK A01 T02780169  RH  051%=      5-min Rain = 0
KCR2 030646Z 12006KT 28/17 A30 RMK A01 T02780169  RH  052%=      5-min Rain = 0
KCR2 030647Z 13006KT 28/17 A30 RMK A01 T02780170  RH  052%=      5-min Rain = 0
KCR2 030648Z 13005KT 28/17 A30 RMK A01 T02780169  RH  052%=      5-min Rain = 0
KCR2 030649Z 12005KT 28/17 A30 RMK A01 T02780169  RH  052%=      5-min Rain = 0
KCR2 030650Z 12006KT 28/17 A30 RMK A01 T02770169  RH  052%=      5-min Rain = 0
KCR2 030651Z 13006KT 28/17 A30 RMK A01 T02770170  RH  052%=      5-min Rain = 0
KCR2 030652Z 12005KT 28/17 A30 RMK A01 T02760170  RH  052%=      5-min Rain = 0
KCR2 030653Z 12006KT 28/17 A30 RMK A01 T02760170  RH  052%=      5-min Rain = 0
KCR2 030654Z 13006KT 28/17 A30 RMK A01 T02760170  RH  052%=      5-min Rain = 0
KCR2 030655Z 13006KT 28/17 A30 RMK A01 T02750170  RH  053%=      5-min Rain = 0
KCR2 030656Z 13006KT 28/17 A30 RMK A01 T02750170  RH  053%=      5-min Rain = 0
KCR2 030657Z 13006KT 28/17 A30 RMK A01 T02750170  RH  053%=      5-min Rain = 0
KCR2 030658Z 13006KT 28/17 A30 RMK A01 T02750170  RH  053%=      5-min Rain = 0
KCR2 030659Z 14006KT 28/17 A30 RMK A01 T02750170  RH  053%=      5-min Rain = 0
KCR2 030700Z 14005KT 28/17 A30 RMK A01 T02750170  RH  053%=      5-min Rain = 0
KCR2 030701Z 14005KT 27/17 A30 RMK A01 T02740170  RH  053%=      5-min Rain = 0
KCR2 030702Z 14005KT 27/17 A30 RMK A01 T02740170  RH  053%=      5-min Rain = 0
KCR2 030703Z 14006KT 27/17 A30 RMK A01 T02730170  RH  053%=      5-min Rain = 0
KCR2 030704Z 14006KT 27/17 A2999 RMK A01 T02730170  RH  053%=      5-min Rain = 0
KCR2 030705Z 14007KT 27/17 A2999 RMK A01 T02730170  RH  053%=      5-min Rain = 0
KCR2 030706Z 14006KT 27/17 A2999 RMK A01 T02740170  RH  053%=      5-min Rain = 0
KCR2 030707Z 14006KT 28/17 A2999 RMK A01 T02750170  RH  053%=      5-min Rain = 0
KCR2 030708Z 14007KT 28/17 A2999 RMK A01 T02750169  RH  053%=      5-min Rain = 0
KCR2 030709Z 14006KT 28/17 A2999 RMK A01 T02750170  RH  053%=      5-min Rain = 0
KCR2 030710Z 14006KT 27/17 A2999 RMK A01 T02740170  RH  053%=      5-min Rain = 0
KCR2 030711Z 14006KT 28/17 A2999 RMK A01 T02750170  RH  053%=      5-min Rain = 0
KCR2 030712Z 13005KT 27/17 A2999 RMK A01 T02740170  RH  053%=      5-min Rain = 0
KCR2 030713Z 14006KT 27/17 A2999 RMK A01 T02740170  RH  053%=      5-min Rain = 0
KCR2 030714Z 13005KT 27/17 A2999 RMK A01 T02730169  RH  053%=      5-min Rain = 0
KCR2 030715Z 13006KT 27/17 A2999 RMK A01 T02730169  RH  053%=      5-min Rain = 0
KCR2 030716Z 14005KT 27/17 A2999 RMK A01 T02730169  RH  053%=      5-min Rain = 0
KCR2 030717Z 13006KT 27/17 A2999 RMK A01 T02720169  RH  053%=      5-min Rain = 0
KCR2 030718Z 13005KT 27/17 A2999 RMK A01 T02720169  RH  053%=      5-min Rain = 0
KCR2 030719Z 14005KT 27/17 A2999 RMK A01 T02720169  RH  053%=      5-min Rain = 0
KCR2 030720Z 13005KT 27/17 A2999 RMK A01 T02720169  RH  053%=      5-min Rain = 0
KCR2 030721Z 14005KT 27/17 A2999 RMK A01 T02720169  RH  053%=      5-min Rain = 0
KCR2 030722Z 13005KT 27/17 A2999 RMK A01 T02710169  RH  054%=      5-min Rain = 0
KCR2 030723Z 14005KT 27/17 A2999 RMK A01 T02710169  RH  054%=      5-min Rain = 0
KCR2 030724Z 14005KT 27/17 A2999 RMK A01 T02710169  RH  054%=      5-min Rain = 0
KCR2 030725Z 14006KT 27/17 A2999 RMK A01 T02710169  RH  054%=      5-min Rain = 0
KCR2 030726Z 14006KT 27/17 A2999 RMK A01 T02710169  RH  054%=      5-min Rain = 0
KCR2 030727Z 14006KT 27/17 A2999 RMK A01 T02700169  RH  054%=      5-min Rain = 0
KCR2 030728Z 14005KT 27/17 A2999 RMK A01 T02700169  RH  054%=      5-min Rain = 0
KCR2 030729Z 14005KT 27/17 A2999 RMK A01 T02700169  RH  054%=      5-min Rain = 0
KCR2 030730Z 14005KT 27/17 A2999 RMK A01 T02700169  RH  054%=      5-min Rain = 0
KCR2 030731Z 13005KT 27/17 A2999 RMK A01 T02690169  RH  054%=      5-min Rain = 0
KCR2 030732Z 13005KT 27/17 A2999 RMK A01 T02690169  RH  054%=      5-min Rain = 0
KCR2 030733Z 13005KT 27/17 A2999 RMK A01 T02690169  RH  054%=      5-min Rain = 0
KCR2 030734Z 12005KT 27/17 A2999 RMK A01 T02690169  RH  054%=      5-min Rain = 0
KCR2 030735Z 12004KT 27/17 A2999 RMK A01 T02680169  RH  054%=      5-min Rain = 0
KCR2 030736Z 12004KT 27/17 A2999 RMK A01 T02680168  RH  054%=      5-min Rain = 0
KCR2 030737Z 11005KT 27/17 A2999 RMK A01 T02670168  RH  055%=      5-min Rain = 0
KCR2 030738Z 11005KT 27/17 A2999 RMK A01 T02660168  RH  055%=      5-min Rain = 0
KCR2 030739Z 11005KT 27/17 A2999 RMK A01 T02660169  RH  055%=      5-min Rain = 0
KCR2 030740Z 11005KT 27/17 A2999 RMK A01 T02660169  RH  055%=      5-min Rain = 0
KCR2 030741Z 11006KT 27/17 A2999 RMK A01 T02660168  RH  055%=      5-min Rain = 0
KCR2 030742Z 11006KT 27/17 A2999 RMK A01 T02660169  RH  055%=      5-min Rain = 0
KCR2 030743Z 11006KT 27/17 A2999 RMK A01 T02650168  RH  055%=      5-min Rain = 0
KCR2 030744Z 11007KT 27/17 A2999 RMK A01 T02650168  RH  055%=      5-min Rain = 0
KCR2 030745Z 11006KT 27/17 A2999 RMK A01 T02650169  RH  055%=      5-min Rain = 0
KCR2 030746Z 11007KT 27/17 A2999 RMK A01 T02650168  RH  055%=      5-min Rain = 0
KCR2 030747Z 11007KT 27/17 A30 RMK A01 T02660169  RH  055%=      5-min Rain = 0
KCR2 030748Z 10007KT 27/17 A30 RMK A01 T02660168  RH  055%=      5-min Rain = 0
KCR2 030749Z 10007KT 27/17 A30 RMK A01 T02660168  RH  055%=      5-min Rain = 0
KCR2 030750Z 10006KT 27/17 A2999 RMK A01 T02660169  RH  055%=      5-min Rain = 0
KCR2 030751Z 10006KT 27/17 A2999 RMK A01 T02660169  RH  055%=      5-min Rain = 0
KCR2 030752Z 11007KT 27/17 A30 RMK A01 T02660169  RH  055%=      5-min Rain = 0
KCR2 030753Z 11008KT 27/17 A30 RMK A01 T02660169  RH  055%=      5-min Rain = 0
KCR2 030754Z 12008KT 27/17 A30 RMK A01 T02660169  RH  055%=      5-min Rain = 0
KCR2 030755Z 12007KT 27/17 A30 RMK A01 T02660169  RH  055%=      5-min Rain = 0
KCR2 030756Z 11006KT 27/17 A2999 RMK A01 T02660169  RH  055%=      5-min Rain = 0
KCR2 030757Z 12006KT 27/17 A2999 RMK A01 T02660169  RH  055%=      5-min Rain = 0
KCR2 030758Z 11007KT 27/17 A2999 RMK A01 T02660169  RH  055%=      5-min Rain = 0
KCR2 030759Z 11008KT 27/17 A30 RMK A01 T02660169  RH  055%=      5-min Rain = 0
KCR2 030800Z 11008KT 27/17 A30 RMK A01 T02660169  RH  055%=      5-min Rain = 0
KCR2 030801Z 12007KT 27/17 A30 RMK A01 T02660169  RH  055%=      5-min Rain = 0
KCR2 030802Z 12006KT 27/17 A2999 RMK A01 T02660169  RH  055%=      5-min Rain = 0
KCR2 030803Z 12006KT 27/17 A2999 RMK A01 T02660170  RH  055%=      5-min Rain = 0
KCR2 030804Z 12006KT 27/17 A2999 RMK A01 T02660170  RH  055%=      5-min Rain = 0
KCR2 030805Z 13006KT 27/17 A2999 RMK A01 T02660170  RH  056%=      5-min Rain = 0
KCR2 030806Z 13007KT 27/17 A2999 RMK A01 T02660170  RH  056%=      5-min Rain = 0
KCR2 030807Z 13007KT 27/17 A2999 RMK A01 T02660171  RH  056%=      5-min Rain = 0
KCR2 030808Z 13007KT 27/17 A2999 RMK A01 T02670171  RH  056%=      5-min Rain = 0
KCR2 030809Z 13007KT 27/17 A2999 RMK A01 T02670171  RH  056%=      5-min Rain = 0
KCR2 030810Z 13006KT 27/17 A2999 RMK A01 T02670172  RH  056%=      5-min Rain = 0
KCR2 030811Z 13007KT 27/17 A2999 RMK A01 T02670172  RH  056%=      5-min Rain = 0
KCR2 030812Z 13007KT 27/17 A2999 RMK A01 T02670172  RH  056%=      5-min Rain = 0
KCR2 030813Z 13007KT 27/17 A2999 RMK A01 T02670173  RH  056%=      5-min Rain = 0
KCR2 030814Z 13009KT 27/17 A2999 RMK A01 T02680174  RH  057%=      5-min Rain = 0
KCR2 030815Z 14008KT 27/18 A2999 RMK A01 T02690175  RH  056%=      5-min Rain = 0
KCR2 030816Z 13008KT 27/18 A2999 RMK A01 T02700175  RH  056%=      5-min Rain = 0
KCR2 030817Z 13009KT 27/18 A2999 RMK A01 T02700176  RH  056%=      5-min Rain = 0
KCR2 030818Z 14008KT 27/18 A2999 RMK A01 T02700176  RH  056%=      5-min Rain = 0
KCR2 030819Z 13008KT 27/18 A2999 RMK A01 T02710176  RH  056%=      5-min Rain = 0
KCR2 030820Z 13007KT 27/18 A2999 RMK A01 T02700176  RH  056%=      5-min Rain = 0
KCR2 030821Z 13007KT 27/18 A2999 RMK A01 T02700176  RH  056%=      5-min Rain = 0
KCR2 030822Z 13007KT 27/18 A2999 RMK A01 T02700176  RH  056%=      5-min Rain = 0
KCR2 030823Z 13006KT 27/18 A2999 RMK A01 T02700176  RH  056%=      5-min Rain = 0
KCR2 030824Z 13007KT 27/18 A2999 RMK A01 T02700176  RH  056%=      5-min Rain = 0
KCR2 030825Z 13005KT 27/18 A2999 RMK A01 T02690175  RH  056%=      5-min Rain = 0
KCR2 030826Z 12005KT 27/18 A2999 RMK A01 T02690175  RH  056%=      5-min Rain = 0
KCR2 030827Z 11006KT 27/17 A2999 RMK A01 T02670174  RH  056%=      5-min Rain = 0
KCR2 030828Z 12006KT 27/17 A2999 RMK A01 T02660172  RH  056%=      5-min Rain = 0
KCR2 030829Z 12006KT 27/17 A2999 RMK A01 T02650172  RH  057%=      5-min Rain = 0
KCR2 030830Z 12006KT 26/17 A2999 RMK A01 T02640171  RH  057%=      5-min Rain = 0
KCR2 030831Z 12006KT 26/17 A2999 RMK A01 T02630171  RH  057%=      5-min Rain = 0
KCR2 030832Z 12006KT 26/17 A2999 RMK A01 T02630171  RH  057%=      5-min Rain = 0
KCR2 030833Z 12006KT 26/17 A2999 RMK A01 T02620171  RH  057%=      5-min Rain = 0
KCR2 030834Z 12007KT 26/17 A2998 RMK A01 T02620170  RH  057%=      5-min Rain = 0
KCR2 030835Z 12006KT 26/17 A2998 RMK A01 T02620170  RH  057%=      5-min Rain = 0
KCR2 030836Z 13006KT 26/17 A2998 RMK A01 T02620170  RH  057%=      5-min Rain = 0
KCR2 030837Z 12007KT 26/17 A2999 RMK A01 T02620170  RH  057%=      5-min Rain = 0
KCR2 030838Z 13007KT 26/17 A2999 RMK A01 T02620170  RH  057%=      5-min Rain = 0
KCR2 030839Z 13006KT 26/17 A2999 RMK A01 T02620170  RH  057%=      5-min Rain = 0
KCR2 030840Z 13006KT 26/17 A2999 RMK A01 T02630170  RH  057%=      5-min Rain = 0
KCR2 030841Z 13005KT 26/17 A2999 RMK A01 T02630170  RH  057%=      5-min Rain = 0
KCR2 030842Z 13005KT 26/17 A2999 RMK A01 T02630170  RH  057%=      5-min Rain = 0
KCR2 030843Z 13005KT 26/17 A2999 RMK A01 T02630170  RH  057%=      5-min Rain = 0
KCR2 030844Z 12005KT 26/17 A2999 RMK A01 T02630170  RH  057%=      5-min Rain = 0
KCR2 030845Z 12005KT 26/17 A2999 RMK A01 T02630170  RH  057%=      5-min Rain = 0
KCR2 030846Z 11005KT 26/17 A2999 RMK A01 T02630170  RH  057%=      5-min Rain = 0
KCR2 030847Z 11005KT 26/17 A2999 RMK A01 T02620170  RH  057%=      5-min Rain = 0
KCR2 030848Z 10005KT 26/17 A2999 RMK A01 T02620170  RH  057%=      5-min Rain = 0
KCR2 030849Z 11004KT 26/17 A2999 RMK A01 T02610170  RH  057%=      5-min Rain = 0
KCR2 030850Z 11005KT 26/17 A2999 RMK A01 T02610169  RH  057%=      5-min Rain = 0
KCR2 030851Z 11006KT 26/17 A2999 RMK A01 T02610170  RH  057%=      5-min Rain = 0
KCR2 030852Z 11005KT 26/17 A2999 RMK A01 T02610170  RH  057%=      5-min Rain = 0
KCR2 030853Z 11005KT 26/17 A2999 RMK A01 T02610169  RH  057%=      5-min Rain = 0
KCR2 030854Z 11005KT 26/17 A2999 RMK A01 T02610169  RH  057%=      5-min Rain = 0
KCR2 030855Z 11005KT 26/17 A2999 RMK A01 T02610170  RH  057%=      5-min Rain = 0
KCR2 030856Z 11005KT 26/17 A2999 RMK A01 T02610170  RH  057%=      5-min Rain = 0
KCR2 030857Z 11004KT 26/17 A2999 RMK A01 T02610170  RH  057%=      5-min Rain = 0
KCR2 030858Z 11005KT 26/17 A2999 RMK A01 T02600169  RH  057%=      5-min Rain = 0
KCR2 030859Z 13005KT 26/17 A2999 RMK A01 T02600169  RH  057%=      5-min Rain = 0
KCR2 030900Z 13004KT 26/17 A2999 RMK A01 T02600169  RH  057%=      5-min Rain = 0
KCR2 030901Z 13004KT 26/17 A2999 RMK A01 T02610169  RH  057%=      5-min Rain = 0
KCR2 030902Z 14004KT 26/17 A2999 RMK A01 T02600169  RH  057%=      5-min Rain = 0
KCR2 030903Z 14004KT 26/17 A2999 RMK A01 T02600169  RH  057%=      5-min Rain = 0
KCR2 030904Z 15004KT 26/17 A2999 RMK A01 T02610169  RH  057%=      5-min Rain = 0
KCR2 030905Z 16007KT 26/17 A2999 RMK A01 T02620169  RH  057%=      5-min Rain = 0
KCR2 030906Z 16010KT 27/17 A2999 RMK A01 T02650169  RH  056%=      5-min Rain = 0
KCR2 030907Z 17010KT 27/17 A2999 RMK A01 T02690169  RH  054%=      5-min Rain = 0
KCR2 030908Z 16007KT 27/17 A2999 RMK A01 T02720169  RH  053%=      5-min Rain = 0
KCR2 030909Z 17008KT 27/17 A2999 RMK A01 T02730169  RH  053%=      5-min Rain = 0
KCR2 030910Z 17010KT 27/17 A2999 RMK A01 T02740169  RH  053%=      5-min Rain = 0
KCR2 030911Z 18011KT 27/17 A2999 RMK A01 T02740169  RH  053%=      5-min Rain = 0
KCR2 030912Z 17010KT 28/17 A2999 RMK A01 T02750169  RH  052%=      5-min Rain = 0
KCR2 030913Z 17010KT 28/17 A2999 RMK A01 T02750169  RH  052%=      5-min Rain = 0
KCR2 030914Z 18009KT 27/17 A2999 RMK A01 T02740168  RH  052%=      5-min Rain = 0
KCR2 030915Z 17008KT 28/17 A2999 RMK A01 T02750168  RH  052%=      5-min Rain = 0
KCR2 030916Z 17010KT 28/17 A2999 RMK A01 T02750169  RH  052%=      5-min Rain = 0
KCR2 030917Z 16010KT 28/17 A2999 RMK A01 T02750169  RH  052%=      5-min Rain = 0
KCR2 030918Z 17012KT 28/17 A2999 RMK A01 T02750169  RH  052%=      5-min Rain = 0
KCR2 030919Z 18009KT 27/17 A2999 RMK A01 T02740168  RH  052%=      5-min Rain = 0
KCR2 030920Z 17011KT 27/17 A2999 RMK A01 T02740169  RH  052%=      5-min Rain = 0
KCR2 030921Z 17010KT 28/17 A2999 RMK A01 T02750169  RH  052%=      5-min Rain = 0
KCR2 030922Z 18010KT 27/17 A2999 RMK A01 T02740169  RH  052%=      5-min Rain = 0
KCR2 030923Z 18008KT 27/17 A2999 RMK A01 T02740169  RH  053%=      5-min Rain = 0
KCR2 030924Z 17009KT 27/17 A2999 RMK A01 T02740169  RH  053%=      5-min Rain = 0
KCR2 030925Z 17009KT 27/17 A2999 RMK A01 T02740169  RH  053%=      5-min Rain = 0
KCR2 030926Z 17008KT 27/17 A2999 RMK A01 T02740169  RH  053%=      5-min Rain = 0
KCR2 030927Z 15010KT 27/17 A2999 RMK A01 T02730169  RH  053%=      5-min Rain = 0
KCR2 030928Z 16011KT 27/17 A2999 RMK A01 T02730169  RH  053%=      5-min Rain = 0
KCR2 030929Z 16009KT 27/17 A2999 RMK A01 T02730169  RH  053%=      5-min Rain = 0
KCR2 030930Z 17010KT 27/17 A2999 RMK A01 T02730169  RH  053%=      5-min Rain = 0
KCR2 030931Z 17010KT 27/17 A2999 RMK A01 T02730169  RH  053%=      5-min Rain = 0
KCR2 030932Z 17010KT 27/17 A2999 RMK A01 T02730169  RH  053%=      5-min Rain = 0
KCR2 030933Z 16011KT 27/17 A2999 RMK A01 T02720169  RH  053%=      5-min Rain = 0
KCR2 030934Z 16013KT 27/17 A2999 RMK A01 T02720169  RH  053%=      5-min Rain = 0
KCR2 030935Z 16010KT 27/17 A2999 RMK A01 T02720169  RH  053%=      5-min Rain = 0
KCR2 030936Z 16010KT 27/17 A2999 RMK A01 T02720169  RH  053%=      5-min Rain = 0
KCR2 030937Z 16011KT 27/17 A2999 RMK A01 T02720169  RH  053%=      5-min Rain = 0
KCR2 030938Z 16012KT 27/17 A2999 RMK A01 T02720169  RH  053%=      5-min Rain = 0
KCR2 030939Z 16011KT 27/17 A2999 RMK A01 T02720169  RH  053%=      5-min Rain = 0
KCR2 030940Z 17012KT 27/17 A2999 RMK A01 T02710169  RH  053%=      5-min Rain = 0
KCR2 030941Z 17011KT 27/17 A2999 RMK A01 T02710169  RH  054%=      5-min Rain = 0
KCR2 030942Z 17011KT 27/17 A2999 RMK A01 T02710169  RH  053%=      5-min Rain = 0
KCR2 030943Z 17010KT 27/17 A2999 RMK A01 T02710169  RH  054%=      5-min Rain = 0
KCR2 030944Z 17011KT 27/17 A2999 RMK A01 T02710169  RH  054%=      5-min Rain = 0
KCR2 030945Z 17010KT 27/17 A2999 RMK A01 T02710169  RH  054%=      5-min Rain = 0
KCR2 030946Z 17010KT 27/17 A2999 RMK A01 T02710169  RH  054%=      5-min Rain = 0
KCR2 030947Z 17010KT 27/17 A2999 RMK A01 T02700169  RH  054%=      5-min Rain = 0
KCR2 030948Z 16009KT 27/17 A2999 RMK A01 T02700169  RH  054%=      5-min Rain = 0
KCR2 030949Z 16010KT 27/17 A2999 RMK A01 T02700169  RH  054%=      5-min Rain = 0
KCR2 030950Z 17011KT 27/17 A2999 RMK A01 T02690169  RH  054%=      5-min Rain = 0
KCR2 030951Z 17011KT 27/17 A2999 RMK A01 T02690169  RH  054%=      5-min Rain = 0
KCR2 030952Z 16013KT 27/17 A2999 RMK A01 T02700169  RH  054%=      5-min Rain = 0
KCR2 030953Z 16011KT 27/17 A2999 RMK A01 T02690168  RH  054%=      5-min Rain = 0
KCR2 030954Z 16011KT 27/17 A2999 RMK A01 T02700169  RH  054%=      5-min Rain = 0
KCR2 030955Z 16012KT 27/17 A2999 RMK A01 T02690169  RH  054%=      5-min Rain = 0
KCR2 030956Z 16010KT 27/17 A2999 RMK A01 T02690169  RH  054%=      5-min Rain = 0
KCR2 030957Z 16011KT 27/17 A30 RMK A01 T02700169  RH  054%=      5-min Rain = 0
KCR2 030958Z 17012KT 27/17 A30 RMK A01 T02700169  RH  054%=      5-min Rain = 0
KCR2 030959Z 16011KT 27/17 A30 RMK A01 T02700169  RH  054%=      5-min Rain = 0
KCR2 031000Z 16011KT 27/17 A30 RMK A01 T02690169  RH  054%=      5-min Rain = 0
KCR2 031001Z 16012KT 27/17 A30 RMK A01 T02690168  RH  054%=      5-min Rain = 0
KCR2 031002Z 16009KT 27/17 A30 RMK A01 T02690168  RH  054%=      5-min Rain = 0
KCR2 031003Z 16010KT 27/17 A30 RMK A01 T02690168  RH  054%=      5-min Rain = 0
KCR2 031004Z 16009KT 27/17 A30 RMK A01 T02690169  RH  054%=      5-min Rain = 0
KCR2 031005Z 16009KT 27/17 A30 RMK A01 T02690169  RH  054%=      5-min Rain = 0
KCR2 031006Z 16009KT 27/17 A30 RMK A01 T02690168  RH  054%=      5-min Rain = 0
KCR2 031007Z 16009KT 27/17 A30 RMK A01 T02690168  RH  054%=      5-min Rain = 0
KCR2 031008Z 16010KT 27/17 A30 RMK A01 T02690168  RH  054%=      5-min Rain = 0
KCR2 031009Z 17010KT 27/17 A30 RMK A01 T02690168  RH  054%=      5-min Rain = 0
KCR2 031010Z 17009KT 27/17 A30 RMK A01 T02690168  RH  054%=      5-min Rain = 0
KCR2 031011Z 17010KT 27/17 A30 RMK A01 T02690169  RH  054%=      5-min Rain = 0
KCR2 031012Z 17009KT 27/17 A30 RMK A01 T02680168  RH  054%=      5-min Rain = 0
KCR2 031013Z 17009KT 27/17 A30 RMK A01 T02690168  RH  054%=      5-min Rain = 0
KCR2 031014Z 17009KT 27/17 A30 RMK A01 T02680168  RH  054%=      5-min Rain = 0
KCR2 031015Z 18008KT 27/17 A30 RMK A01 T02680168  RH  054%=      5-min Rain = 0
KCR2 031016Z 18010KT 27/17 A30 RMK A01 T02680168  RH  054%=      5-min Rain = 0
KCR2 031017Z 18009KT 27/17 A30 RMK A01 T02680168  RH  054%=      5-min Rain = 0
KCR2 031018Z 18011KT 27/17 A30 RMK A01 T02680168  RH  054%=      5-min Rain = 0
KCR2 031019Z 18012KT 27/17 A30 RMK A01 T02680168  RH  054%=      5-min Rain = 0
KCR2 031020Z 18013KT 27/17 A2999 RMK A01 T02680168  RH  054%=      5-min Rain = 0
KCR2 031021Z 19011KT 27/17 A2999 RMK A01 T02680168  RH  054%=      5-min Rain = 0
KCR2 031022Z 18009KT 27/17 A2999 RMK A01 T02680168  RH  054%=      5-min Rain = 0
KCR2 031023Z 19010KT 27/17 A2999 RMK A01 T02680168  RH  054%=      5-min Rain = 0
KCR2 031024Z 18011KT 27/17 A2999 RMK A01 T02680168  RH  054%=      5-min Rain = 0
KCR2 031025Z 19011KT 27/17 A2999 RMK A01 T02680168  RH  054%=      5-min Rain = 0
KCR2 031026Z 19009KT 27/17 A2999 RMK A01 T02680168  RH  054%=      5-min Rain = 0
KCR2 031027Z 18008KT 27/17 A2999 RMK A01 T02670168  RH  055%=      5-min Rain = 0
KCR2 031028Z 18008KT 27/17 A2999 RMK A01 T02670168  RH  055%=      5-min Rain = 0
KCR2 031029Z 17010KT 27/17 A2999 RMK A01 T02670168  RH  055%=      5-min Rain = 0
KCR2 031030Z 18010KT 27/17 A2999 RMK A01 T02670169  RH  055%=      5-min Rain = 0
KCR2 031031Z 18011KT 27/17 A2999 RMK A01 T02670169  RH  055%=      5-min Rain = 0
KCR2 031032Z 17011KT 27/17 A2999 RMK A01 T02670169  RH  055%=      5-min Rain = 0
KCR2 031033Z 17009KT 27/17 A30 RMK A01 T02680169  RH  055%=      5-min Rain = 0
KCR2 031034Z 17010KT 27/17 A30 RMK A01 T02670168  RH  055%=      5-min Rain = 0
KCR2 031035Z 18011KT 27/17 A30 RMK A01 T02680169  RH  055%=      5-min Rain = 0
KCR2 031036Z 18010KT 27/17 A30 RMK A01 T02670168  RH  055%=      5-min Rain = 0
KCR2 031037Z 17008KT 27/17 A30 RMK A01 T02670169  RH  055%=      5-min Rain = 0
KCR2 031038Z 18011KT 27/17 A30 RMK A01 T02670169  RH  055%=      5-min Rain = 0
KCR2 031039Z 19011KT 27/17 A2999 RMK A01 T02670169  RH  055%=      5-min Rain = 0
KCR2 031040Z 18010KT 27/17 A2999 RMK A01 T02670169  RH  055%=      5-min Rain = 0
KCR2 031041Z 18009KT 27/17 A2999 RMK A01 T02670169  RH  055%=      5-min Rain = 0
KCR2 031042Z 18010KT 27/17 A2999 RMK A01 T02670169  RH  055%=      5-min Rain = 0
KCR2 031043Z 18008KT 27/17 A2999 RMK A01 T02670169  RH  055%=      5-min Rain = 0
KCR2 031044Z 18008KT 27/17 A2999 RMK A01 T02670169  RH  055%=      5-min Rain = 0
KCR2 031045Z 18009KT 27/17 A2999 RMK A01 T02660169  RH  055%=      5-min Rain = 0
KCR2 031046Z 18008KT 27/17 A2999 RMK A01 T02660169  RH  055%=      5-min Rain = 0
KCR2 031047Z 18010KT 27/17 A2999 RMK A01 T02660169  RH  055%=      5-min Rain = 0
KCR2 031048Z 18009KT 27/17 A2999 RMK A01 T02660169  RH  055%=      5-min Rain = 0
KCR2 031049Z 17008KT 27/17 A2999 RMK A01 T02660169  RH  055%=      5-min Rain = 0
KCR2 031050Z 18009KT 27/17 A2999 RMK A01 T02660169  RH  055%=      5-min Rain = 0
KCR2 031051Z 17010KT 27/17 A2999 RMK A01 T02660169  RH  055%=      5-min Rain = 0
KCR2 031052Z 17010KT 27/17 A30 RMK A01 T02660169  RH  055%=      5-min Rain = 0
KCR2 031053Z 18011KT 27/17 A30 RMK A01 T02660169  RH  055%=      5-min Rain = 0
KCR2 031054Z 18009KT 27/17 A30 RMK A01 T02660169  RH  055%=      5-min Rain = 0
KCR2 031055Z 17009KT 27/17 A30 RMK A01 T02660169  RH  055%=      5-min Rain = 0
KCR2 031056Z 17009KT 27/17 A30 RMK A01 T02660169  RH  055%=      5-min Rain = 0
KCR2 031057Z 17009KT 27/17 A30 RMK A01 T02660169  RH  055%=      5-min Rain = 0
KCR2 031058Z 17008KT 27/17 A30 RMK A01 T02660169  RH  055%=      5-min Rain = 0
KCR2 031059Z 17009KT 27/17 A30 RMK A01 T02660169  RH  055%=      5-min Rain = 0
KCR2 031100Z 16011KT 27/17 A30 RMK A01 T02660169  RH  055%=      5-min Rain = 0
KCR2 031101Z 17011KT 27/17 A30 RMK A01 T02660169  RH  055%=      5-min Rain = 0
KCR2 031102Z 15009KT 27/17 A30 RMK A01 T02660169  RH  055%=      5-min Rain = 0
KCR2 031103Z 16010KT 27/17 A30 RMK A01 T02660169  RH  055%=      5-min Rain = 0
KCR2 031104Z 16009KT 27/17 A30 RMK A01 T02660169  RH  055%=      5-min Rain = 0
KCR2 031105Z 16009KT 27/17 A30 RMK A01 T02660169  RH  055%=      5-min Rain = 0
KCR2 031106Z 15010KT 27/17 A30 RMK A01 T02660169  RH  055%=      5-min Rain = 0
KCR2 031107Z 15010KT 27/17 A30 RMK A01 T02660170  RH  055%=      5-min Rain = 0
KCR2 031108Z 16010KT 27/17 A30 RMK A01 T02660170  RH  056%=      5-min Rain = 0
KCR2 031109Z 16010KT 27/17 A30 RMK A01 T02660170  RH  056%=      5-min Rain = 0
KCR2 031110Z 15011KT 27/17 A30 RMK A01 T02660170  RH  056%=      5-min Rain = 0
KCR2 031111Z 16011KT 27/17 A30 RMK A01 T02660170  RH  056%=      5-min Rain = 0
KCR2 031112Z 16009KT 27/17 A30 RMK A01 T02660170  RH  056%=      5-min Rain = 0
KCR2 031113Z 16009KT 27/17 A30 RMK A01 T02660170  RH  056%=      5-min Rain = 0
KCR2 031114Z 16010KT 27/17 A30 RMK A01 T02650170  RH  056%=      5-min Rain = 0
KCR2 031115Z 16010KT 27/17 A30 RMK A01 T02650170  RH  056%=      5-min Rain = 0
KCR2 031116Z 16011KT 27/17 A30 RMK A01 T02660170  RH  056%=      5-min Rain = 0
KCR2 031117Z 17008KT 27/17 A30 RMK A01 T02650170  RH  056%=      5-min Rain = 0
KCR2 031118Z 16009KT 27/17 A30 RMK A01 T02650170  RH  056%=      5-min Rain = 0
KCR2 031119Z 16010KT 27/17 A30 RMK A01 T02650170  RH  056%=      5-min Rain = 0
KCR2 031120Z 17011KT 27/17 A30 RMK A01 T02650171  RH  056%=      5-min Rain = 0
KCR2 031121Z 16009KT 27/17 A30 RMK A01 T02650171  RH  056%=      5-min Rain = 0
KCR2 031122Z 16009KT 27/17 A30 RMK A01 T02650170  RH  056%=      5-min Rain = 0
KCR2 031123Z 16010KT 27/17 A30 RMK A01 T02650171  RH  056%=      5-min Rain = 0
KCR2 031124Z 16009KT 27/17 A3001 RMK A01 T02650171  RH  056%=      5-min Rain = 0
KCR2 031125Z 16008KT 27/17 A3001 RMK A01 T02650171  RH  056%=      5-min Rain = 0
KCR2 031126Z 16011KT 27/17 A3001 RMK A01 T02650171  RH  056%=      5-min Rain = 0
KCR2 031127Z 15010KT 27/17 A3001 RMK A01 T02650171  RH  056%=      5-min Rain = 0
KCR2 031128Z 16008KT 27/17 A3001 RMK A01 T02650171  RH  056%=      5-min Rain = 0
KCR2 031129Z 15010KT 27/17 A3001 RMK A01 T02650172  RH  056%=      5-min Rain = 0
KCR2 031130Z 16010KT 27/17 A3001 RMK A01 T02650172  RH  057%=      5-min Rain = 0
KCR2 031131Z 16011KT 27/17 A3001 RMK A01 T02650172  RH  057%=      5-min Rain = 0
KCR2 031132Z 16010KT 26/17 A3001 RMK A01 T02640172  RH  057%=      5-min Rain = 0
KCR2 031133Z 16010KT 26/17 A3001 RMK A01 T02640172  RH  057%=      5-min Rain = 0
KCR2 031134Z 16012KT 27/17 A3001 RMK A01 T02650172  RH  057%=      5-min Rain = 0
KCR2 031135Z 16010KT 27/17 A3001 RMK A01 T02650173  RH  057%=      5-min Rain = 0
KCR2 031136Z 16009KT 27/17 A3001 RMK A01 T02650173  RH  057%=      5-min Rain = 0
KCR2 031137Z 17008KT 26/17 A3001 RMK A01 T02640173  RH  057%=      5-min Rain = 0
KCR2 031138Z 16008KT 26/17 A3001 RMK A01 T02640173  RH  057%=      5-min Rain = 0
KCR2 031139Z 16008KT 26/17 A3001 RMK A01 T02640173  RH  057%=      5-min Rain = 0
KCR2 031140Z 17011KT 26/17 A3001 RMK A01 T02640173  RH  057%=      5-min Rain = 0
KCR2 031141Z 15009KT 26/17 A3001 RMK A01 T02640174  RH  058%=      5-min Rain = 0
KCR2 031142Z 16009KT 26/17 A3001 RMK A01 T02640174  RH  058%=      5-min Rain = 0
KCR2 031143Z 16009KT 26/17 A3001 RMK A01 T02640174  RH  058%=      5-min Rain = 0
KCR2 031144Z 16010KT 26/17 A3001 RMK A01 T02640174  RH  058%=      5-min Rain = 0
KCR2 031145Z 15008KT 26/17 A3001 RMK A01 T02640174  RH  058%=      5-min Rain = 0
KCR2 031146Z 16008KT 26/18 A3002 RMK A01 T02640175  RH  058%=      5-min Rain = 0
KCR2 031147Z 15008KT 26/18 A3001 RMK A01 T02640175  RH  058%=      5-min Rain = 0
KCR2 031148Z 16010KT 26/18 A3001 RMK A01 T02640175  RH  058%=      5-min Rain = 0
KCR2 031149Z 16013KT 26/18 A3001 RMK A01 T02630175  RH  058%=      5-min Rain = 0
KCR2 031150Z 17011KT 26/18 A3001 RMK A01 T02640176  RH  058%=      5-min Rain = 0
KCR2 031151Z 15009KT 26/18 A3001 RMK A01 T02640175  RH  058%=      5-min Rain = 0
KCR2 031152Z 15012KT 26/18 A3001 RMK A01 T02640176  RH  058%=      5-min Rain = 0
KCR2 031153Z 16012KT 26/18 A3001 RMK A01 T02640176  RH  058%=      5-min Rain = 0
KCR2 031154Z 16010KT 26/18 A3001 RMK A01 T02640176  RH  058%=      5-min Rain = 0
KCR2 031155Z 15010KT 26/18 A3001 RMK A01 T02640176  RH  058%=      5-min Rain = 0
KCR2 031156Z 15012KT 26/18 A3001 RMK A01 T02640176  RH  059%=      5-min Rain = 0
KCR2 031157Z 16010KT 26/18 A3001 RMK A01 T02640177  RH  059%=      5-min Rain = 0
KCR2 031158Z 16011KT 26/18 A3001 RMK A01 T02640177  RH  059%=      5-min Rain = 0
KCR2 031159Z 16012KT 26/18 A3001 RMK A01 T02640178  RH  059%=      5-min Rain = 0
KCR2 031200Z 15011KT 26/18 A3001 RMK A01 T02640178  RH  059%=      5-min Rain = 0
KCR2 031201Z 15011KT 26/18 A3001 RMK A01 T02640178  RH  059%=      5-min Rain = 0
KCR2 031202Z 16012KT 26/18 A3001 RMK A01 T02630178  RH  060%=      5-min Rain = 0
KCR2 031203Z 16010KT 26/18 A3001 RMK A01 T02630179  RH  060%=      5-min Rain = 0
KCR2 031204Z 16010KT 26/18 A3001 RMK A01 T02630179  RH  060%=      5-min Rain = 0
KCR2 031205Z 15010KT 26/18 A3002 RMK A01 T02630180  RH  060%=      5-min Rain = 0
KCR2 031206Z 15011KT 26/18 A3002 RMK A01 T02630180  RH  060%=      5-min Rain = 0
KCR2 031207Z 16014KT 26/18 A3002 RMK A01 T02630181  RH  061%=      5-min Rain = 0
KCR2 031208Z 16014KT 26/18 A3002 RMK A01 T02630181  RH  061%=      5-min Rain = 0
KCR2 031209Z 15011KT 26/18 A3002 RMK A01 T02630181  RH  061%=      5-min Rain = 0
KCR2 031210Z 16013KT 26/18 A3002 RMK A01 T02630182  RH  061%=      5-min Rain = 0
KCR2 031211Z 16011KT 26/18 A3002 RMK A01 T02620182  RH  061%=      5-min Rain = 0
KCR2 031212Z 15009KT 26/18 A3002 RMK A01 T02630182  RH  061%=      5-min Rain = 0
KCR2 031213Z 16008KT 26/18 A3002 RMK A01 T02630182  RH  061%=      5-min Rain = 0
KCR2 031214Z 16007KT 26/18 A3002 RMK A01 T02630182  RH  061%=      5-min Rain = 0
KCR2 031215Z 15009KT 26/18 A3002 RMK A01 T02620182  RH  061%=      5-min Rain = 0
KCR2 031216Z 16009KT 26/18 A3002 RMK A01 T02630183  RH  061%=      5-min Rain = 0
KCR2 031217Z 16010KT 26/18 A3002 RMK A01 T02620183  RH  062%=      5-min Rain = 0
KCR2 031218Z 16012KT 26/18 A3002 RMK A01 T02630183  RH  062%=      5-min Rain = 0
KCR2 031219Z 16011KT 26/18 A3002 RMK A01 T02630184  RH  062%=      5-min Rain = 0
KCR2 031220Z 16010KT 26/18 A3002 RMK A01 T02630183  RH  062%=      5-min Rain = 0
KCR2 031221Z 16010KT 26/18 A3002 RMK A01 T02630183  RH  062%=      5-min Rain = 0
KCR2 031222Z 16010KT 26/18 A3002 RMK A01 T02630184  RH  062%=      5-min Rain = 0
KCR2 031223Z 16010KT 26/18 A3002 RMK A01 T02630184  RH  062%=      5-min Rain = 0
KCR2 031224Z 17009KT 26/18 A3002 RMK A01 T02630184  RH  062%=      5-min Rain = 0
KCR2 031225Z 17010KT 26/19 A3002 RMK A01 T02640185  RH  062%=      5-min Rain = 0
KCR2 031226Z 17010KT 26/19 A3002 RMK A01 T02640185  RH  062%=      5-min Rain = 0
KCR2 031227Z 17013KT 26/19 A3002 RMK A01 T02640185  RH  062%=      5-min Rain = 0
KCR2 031228Z 16011KT 26/19 A3002 RMK A01 T02640185  RH  062%=      5-min Rain = 0
KCR2 031229Z 16009KT 26/19 A3003 RMK A01 T02640186  RH  062%=      5-min Rain = 0
KCR2 031230Z 17012KT 27/19 A3003 RMK A01 T02650186  RH  062%=      5-min Rain = 0
KCR2 031231Z 16012KT 27/19 A3003 RMK A01 T02650186  RH  062%=      5-min Rain = 0
KCR2 031232Z 16012KT 27/19 A3003 RMK A01 T02650186  RH  062%=      5-min Rain = 0
KCR2 031233Z 16012KT 27/19 A3003 RMK A01 T02650186  RH  062%=      5-min Rain = 0
KCR2 031234Z 16012KT 27/19 A3003 RMK A01 T02650186  RH  062%=      5-min Rain = 0
KCR2 031235Z 16009KT 27/19 A3003 RMK A01 T02650186  RH  062%=      5-min Rain = 0
KCR2 031236Z 17010KT 27/19 A3003 RMK A01 T02650186  RH  062%=      5-min Rain = 0
KCR2 031237Z 16008KT 27/19 A3003 RMK A01 T02650186  RH  062%=      5-min Rain = 0
KCR2 031238Z 16009KT 27/19 A3003 RMK A01 T02650186  RH  062%=      5-min Rain = 0
KCR2 031239Z 16008KT 27/19 A3003 RMK A01 T02660186  RH  062%=      5-min Rain = 0
KCR2 031240Z 15010KT 27/19 A3003 RMK A01 T02660187  RH  062%=      5-min Rain = 0
KCR2 031241Z 16011KT 27/19 A3003 RMK A01 T02670187  RH  061%=      5-min Rain = 0
KCR2 031242Z 16009KT 27/19 A3003 RMK A01 T02670187  RH  062%=      5-min Rain = 0
KCR2 031243Z 17008KT 27/19 A3003 RMK A01 T02660187  RH  062%=      5-min Rain = 0
KCR2 031244Z 17009KT 27/19 A3003 RMK A01 T02670188  RH  062%=      5-min Rain = 0
KCR2 031245Z 17009KT 27/19 A3003 RMK A01 T02670187  RH  062%=      5-min Rain = 0
KCR2 031246Z 17009KT 27/19 A3003 RMK A01 T02670187  RH  062%=      5-min Rain = 0
KCR2 031247Z 17011KT 27/19 A3003 RMK A01 T02670188  RH  062%=      5-min Rain = 0
KCR2 031248Z 17011KT 27/19 A3003 RMK A01 T02670188  RH  062%=      5-min Rain = 0
KCR2 031249Z 16009KT 27/19 A3003 RMK A01 T02660188  RH  062%=      5-min Rain = 0
KCR2 031250Z 17009KT 27/19 A3003 RMK A01 T02660188  RH  062%=      5-min Rain = 0
KCR2 031251Z 16011KT 27/19 A3004 RMK A01 T02660188  RH  062%=      5-min Rain = 0
KCR2 031252Z 17010KT 27/19 A3003 RMK A01 T02660189  RH  063%=      5-min Rain = 0
KCR2 031253Z 17009KT 27/19 A3003 RMK A01 T02660190  RH  063%=      5-min Rain = 0
KCR2 031254Z 18009KT 27/19 A3003 RMK A01 T02650190  RH  063%=      5-min Rain = 0
KCR2 031255Z 17009KT 27/19 A3004 RMK A01 T02650190  RH  063%=      5-min Rain = 0
KCR2 031256Z 16009KT 27/19 A3004 RMK A01 T02660190  RH  063%=      5-min Rain = 0
KCR2 031257Z 17011KT 27/19 A3004 RMK A01 T02660190  RH  063%=      5-min Rain = 0
KCR2 031258Z 17010KT 27/19 A3004 RMK A01 T02660191  RH  063%=      5-min Rain = 0
KCR2 031259Z 16012KT 27/19 A3004 RMK A01 T02660191  RH  063%=      5-min Rain = 0
KCR2 031300Z 16013KT 27/19 A3004 RMK A01 T02660191  RH  063%=      5-min Rain = 0
KCR2 031301Z 16010KT 27/19 A3004 RMK A01 T02660192  RH  064%=      5-min Rain = 0
KCR2 031302Z 16011KT 27/19 A3004 RMK A01 T02660192  RH  064%=      5-min Rain = 0
KCR2 031303Z 17014KT 27/19 A3004 RMK A01 T02660192  RH  064%=      5-min Rain = 0
KCR2 031304Z 16014KT 27/19 A3004 RMK A01 T02660192  RH  064%=      5-min Rain = 0
KCR2 031305Z 16013KT 27/19 A3004 RMK A01 T02660193  RH  064%=      5-min Rain = 0
KCR2 031306Z 17012KT 27/19 A3004 RMK A01 T02660193  RH  064%=      5-min Rain = 0
KCR2 031307Z 16011KT 27/19 A3004 RMK A01 T02660193  RH  064%=      5-min Rain = 0
KCR2 031308Z 16011KT 27/19 A3004 RMK A01 T02660192  RH  064%=      5-min Rain = 0
KCR2 031309Z 15012KT 27/19 A3004 RMK A01 T02660193  RH  064%=      5-min Rain = 0
KCR2 031310Z 15014KT 27/19 A3004 RMK A01 T02660193  RH  064%=      5-min Rain = 0
KCR2 031311Z 14012KT 27/19 A3004 RMK A01 T02660193  RH  064%=      5-min Rain = 0
KCR2 031312Z 15010KT 27/19 A3004 RMK A01 T02660193  RH  064%=      5-min Rain = 0
KCR2 031313Z 16013KT 27/19 A3004 RMK A01 T02670194  RH  064%=      5-min Rain = 0
KCR2 031314Z 15012KT 27/19 A3004 RMK A01 T02680194  RH  064%=      5-min Rain = 0
KCR2 031315Z 17014KT 27/19 A3004 RMK A01 T02680194  RH  064%=      5-min Rain = 0
KCR2 031316Z 16011KT 27/19 A3004 RMK A01 T02680194  RH  064%=      5-min Rain = 0
KCR2 031317Z 16014KT 27/19 A3004 RMK A01 T02690194  RH  064%=      5-min Rain = 0
KCR2 031318Z 16012KT 27/19 A3004 RMK A01 T02680194  RH  064%=      5-min Rain = 0
KCR2 031319Z 16012KT 27/19 A3004 RMK A01 T02680194  RH  064%=      5-min Rain = 0
KCR2 031320Z 16011G16KT 27/19 A3004 RMK A01 T02690194  RH  064%=      5-min Rain = 0
KCR2 031321Z 17014KT 27/19 A3004 RMK A01 T02690194  RH  063%=      5-min Rain = 0
KCR2 031322Z 17012KT 27/20 A3004 RMK A01 T02690195  RH  064%=      5-min Rain = 0
KCR2 031323Z 18012KT 27/19 A3004 RMK A01 T02690194  RH  064%=      5-min Rain = 0
KCR2 031324Z 18015KT 27/19 A3004 RMK A01 T02690194  RH  064%=      5-min Rain = 0
KCR2 031325Z 17013KT 27/19 A3004 RMK A01 T02690194  RH  063%=      5-min Rain = 0
KCR2 031326Z 17011KT 27/20 A3004 RMK A01 T02690195  RH  064%=      5-min Rain = 0
KCR2 031327Z 17012KT 27/20 A3004 RMK A01 T02700195  RH  064%=      5-min Rain = 0
KCR2 031328Z 18013KT 27/20 A3004 RMK A01 T02710195  RH  063%=      5-min Rain = 0
KCR2 031329Z 17012KT 27/20 A3004 RMK A01 T02700195  RH  063%=      5-min Rain = 0
KCR2 031330Z 18015KT 27/20 A3005 RMK A01 T02700195  RH  063%=      5-min Rain = 0
KCR2 031331Z 18013KT 27/20 A3005 RMK A01 T02700195  RH  064%=      5-min Rain = 0
KCR2 031332Z 17012KT 27/20 A3005 RMK A01 T02700195  RH  064%=      5-min Rain = 0
KCR2 031333Z 17014KT 27/20 A3005 RMK A01 T02700196  RH  064%=      5-min Rain = 0
KCR2 031334Z 18016KT 27/20 A3005 RMK A01 T02700196  RH  064%=      5-min Rain = 0
KCR2 031335Z 17015KT 27/20 A3005 RMK A01 T02700195  RH  064%=      5-min Rain = 0
KCR2 031336Z 16014KT 27/20 A3005 RMK A01 T02700195  RH  064%=      5-min Rain = 0
KCR2 031337Z 16012KT 27/20 A3005 RMK A01 T02700196  RH  064%=      5-min Rain = 0
KCR2 031338Z 16012KT 27/20 A3005 RMK A01 T02700196  RH  064%=      5-min Rain = 0
KCR2 031339Z 17012KT 27/20 A3005 RMK A01 T02710197  RH  064%=      5-min Rain = 0
KCR2 031340Z 15014KT 27/20 A3005 RMK A01 T02710197  RH  064%=      5-min Rain = 0
KCR2 031341Z 16015KT 27/20 A3005 RMK A01 T02710197  RH  064%=      5-min Rain = 0
KCR2 031342Z 16015KT 27/20 A3005 RMK A01 T02710197  RH  064%=      5-min Rain = 0
KCR2 031343Z 17015KT 27/20 A3005 RMK A01 T02700197  RH  064%=      5-min Rain = 0
KCR2 031344Z 17015KT 27/20 A3005 RMK A01 T02700196  RH  064%=      5-min Rain = 0
KCR2 031345Z 17016KT 27/20 A3005 RMK A01 T02700196  RH  064%=      5-min Rain = 0
KCR2 031346Z 17014KT 27/20 A3005 RMK A01 T02700196  RH  064%=      5-min Rain = 0
KCR2 031347Z 17013KT 27/20 A3005 RMK A01 T02700195  RH  064%=      5-min Rain = 0
KCR2 031348Z 17015KT 27/20 A3005 RMK A01 T02700195  RH  064%=      5-min Rain = 0
KCR2 031349Z 17013KT 27/20 A3005 RMK A01 T02710196  RH  064%=      5-min Rain = 0
KCR2 031350Z 16013KT 27/20 A3005 RMK A01 T02720196  RH  063%=      5-min Rain = 0
KCR2 031351Z 16016KT 27/20 A3004 RMK A01 T02720196  RH  063%=      5-min Rain = 0
KCR2 031352Z 16013KT 27/20 A3005 RMK A01 T02710196  RH  064%=      5-min Rain = 0
KCR2 031353Z 16014KT 27/20 A3005 RMK A01 T02720196  RH  063%=      5-min Rain = 0
KCR2 031354Z 16015KT 27/20 A3005 RMK A01 T02730197  RH  063%=      5-min Rain = 0
KCR2 031355Z 16013KT 27/20 A3005 RMK A01 T02720196  RH  063%=      5-min Rain = 0
KCR2 031356Z 17012KT 27/20 A3005 RMK A01 T02710196  RH  064%=      5-min Rain = 0
KCR2 031357Z 16013KT 27/20 A3005 RMK A01 T02710196  RH  064%=      5-min Rain = 0
KCR2 031358Z 17011KT 27/20 A3005 RMK A01 T02720196  RH  063%=      5-min Rain = 0
KCR2 031359Z 16013KT 27/20 A3005 RMK A01 T02730196  RH  063%=      5-min Rain = 0
KCR2 031400Z 17011KT 27/20 A3005 RMK A01 T02730197  RH  063%=      5-min Rain = 0
KCR2 031401Z 18010KT 27/20 A3005 RMK A01 T02740197  RH  063%=      5-min Rain = 0
KCR2 031402Z 17013KT 28/20 A3005 RMK A01 T02760197  RH  062%=      5-min Rain = 0
KCR2 031403Z 18013KT 28/20 A3005 RMK A01 T02760196  RH  062%=      5-min Rain = 0
KCR2 031404Z 17012KT 28/20 A3005 RMK A01 T02760196  RH  062%=      5-min Rain = 0
KCR2 031405Z 17011G16KT 28/20 A3005 RMK A01 T02760196  RH  062%=      5-min Rain = 0
KCR2 031406Z 16014KT 28/20 A3005 RMK A01 T02750196  RH  062%=      5-min Rain = 0
KCR2 031407Z 17014KT 28/20 A3005 RMK A01 T02750196  RH  062%=      5-min Rain = 0
KCR2 031408Z 17013KT 28/20 A3005 RMK A01 T02750196  RH  062%=      5-min Rain = 0
KCR2 031409Z 17011KT 27/20 A3005 RMK A01 T02740197  RH  062%=      5-min Rain = 0
KCR2 031410Z 17012KT 28/20 A3005 RMK A01 T02760197  RH  062%=      5-min Rain = 0
KCR2 031411Z 17014KT 28/20 A3005 RMK A01 T02760197  RH  062%=      5-min Rain = 0
KCR2 031412Z 18012KT 28/20 A3005 RMK A01 T02760196  RH  062%=      5-min Rain = 0
KCR2 031413Z 18011KT 28/20 A3005 RMK A01 T02760196  RH  061%=      5-min Rain = 0
KCR2 031414Z 19014KT 28/20 A3004 RMK A01 T02770196  RH  061%=      5-min Rain = 0
KCR2 031415Z 18013KT 28/20 A3004 RMK A01 T02760196  RH  062%=      5-min Rain = 0
KCR2 031416Z 18013KT 28/20 A3004 RMK A01 T02760196  RH  062%=      5-min Rain = 0
KCR2 031417Z 17010KT 28/20 A3005 RMK A01 T02760196  RH  062%=      5-min Rain = 0
KCR2 031418Z 17013KT 28/20 A3005 RMK A01 T02780197  RH  062%=      5-min Rain = 0
KCR2 031419Z 16014KT 28/20 A3005 RMK A01 T02810196  RH  060%=      5-min Rain = 0
KCR2 031420Z 16014KT 28/20 A3005 RMK A01 T02800195  RH  060%=      5-min Rain = 0
KCR2 031421Z 16015KT 28/20 A3005 RMK A01 T02780195  RH  061%=      5-min Rain = 0
KCR2 031422Z 17014KT 28/19 A3005 RMK A01 T02780194  RH  060%=      5-min Rain = 0
KCR2 031423Z 17014KT 28/20 A3005 RMK A01 T02790195  RH  060%=      5-min Rain = 0
KCR2 031424Z 17014KT 28/20 A3005 RMK A01 T02790196  RH  060%=      5-min Rain = 0
KCR2 031425Z 18012KT 28/20 A3005 RMK A01 T02790196  RH  061%=      5-min Rain = 0
KCR2 031426Z 17014KT 28/20 A3005 RMK A01 T02780196  RH  061%=      5-min Rain = 0
KCR2 031427Z 16012KT 28/20 A3005 RMK A01 T02790196  RH  061%=      5-min Rain = 0
KCR2 031428Z 15011KT 28/20 A3005 RMK A01 T02780195  RH  061%=      5-min Rain = 0
KCR2 031429Z 16010KT 28/20 A3005 RMK A01 T02790195  RH  060%=      5-min Rain = 0
KCR2 031430Z 17011KT 28/20 A3005 RMK A01 T02800195  RH  060%=      5-min Rain = 0
KCR2 031431Z 18012KT 28/20 A3005 RMK A01 T02810196  RH  060%=      5-min Rain = 0
KCR2 031432Z 18012KT 28/20 A3005 RMK A01 T02820195  RH  059%=      5-min Rain = 0
KCR2 031433Z 17010KT 28/20 A3005 RMK A01 T02820196  RH  060%=      5-min Rain = 0
KCR2 031434Z 18009KT 28/20 A3005 RMK A01 T02820196  RH  060%=      5-min Rain = 0
KCR2 031435Z 18010KT 28/20 A3005 RMK A01 T02830197  RH  060%=      5-min Rain = 0
KCR2 031436Z 18013KT 29/20 A3005 RMK A01 T02860197  RH  059%=      5-min Rain = 0
KCR2 031437Z 18013KT 29/20 A3005 RMK A01 T02850195  RH  058%=      5-min Rain = 0
KCR2 031438Z 16011KT 28/20 A3005 RMK A01 T02830195  RH  059%=      5-min Rain = 0
KCR2 031439Z 17012KT 28/20 A3005 RMK A01 T02840196  RH  059%=      5-min Rain = 0
KCR2 031440Z 17015KT 29/20 A3005 RMK A01 T02850196  RH  058%=      5-min Rain = 0
KCR2 031441Z 17015KT 28/20 A3005 RMK A01 T02840195  RH  059%=      5-min Rain = 0
KCR2 031442Z 16015KT 28/20 A3005 RMK A01 T02830195  RH  059%=      5-min Rain = 0
KCR2 031443Z 17013KT 28/20 A3005 RMK A01 T02830195  RH  059%=      5-min Rain = 0
KCR2 031444Z 17012KT 28/20 A3005 RMK A01 T02830196  RH  059%=      5-min Rain = 0
KCR2 031445Z 17011KT 28/20 A3005 RMK A01 T02830196  RH  059%=      5-min Rain = 0
KCR2 031446Z 16011KT 28/20 A3006 RMK A01 T02840197  RH  059%=      5-min Rain = 0
KCR2 031447Z 15015KT 29/20 A3006 RMK A01 T02880196  RH  058%=      5-min Rain = 0
KCR2 031448Z 16016KT 29/20 A3006 RMK A01 T02900196  RH  057%=      5-min Rain = 0
KCR2 031449Z 17013KT 29/20 A3006 RMK A01 T02890195  RH  057%=      5-min Rain = 0
KCR2 031450Z 17012KT 29/20 A3006 RMK A01 T02880196  RH  057%=      5-min Rain = 0
KCR2 031451Z 18012G18KT 29/20 A3006 RMK A01 T02900196  RH  057%=      5-min Rain = 0
KCR2 031452Z 16013KT 29/20 A3006 RMK A01 T02880195  RH  057%=      5-min Rain = 0
KCR2 031453Z 16014KT 29/19 A3006 RMK A01 T02880194  RH  057%=      5-min Rain = 0
KCR2 031454Z 16015KT 29/19 A3006 RMK A01 T02870194  RH  057%=      5-min Rain = 0
KCR2 031455Z 17014KT 29/19 A3006 RMK A01 T02870194  RH  057%=      5-min Rain = 0
KCR2 031456Z 18014KT 29/20 A3006 RMK A01 T02880195  RH  057%=      5-min Rain = 0
KCR2 031457Z 17013KT 29/20 A3006 RMK A01 T02880195  RH  057%=      5-min Rain = 0
KCR2 031458Z 18014KT 29/20 A3006 RMK A01 T02880195  RH  057%=      5-min Rain = 0
KCR2 031459Z 18013KT 29/20 A3006 RMK A01 T02880195  RH  057%=      5-min Rain = 0
KCR2 031500Z 17015KT 29/20 A3005 RMK A01 T02880195  RH  057%=      5-min Rain = 0
KCR2 031501Z 17013KT 29/19 A3006 RMK A01 T02880194  RH  057%=      5-min Rain = 0
KCR2 031502Z 17011KT 29/19 A3006 RMK A01 T02890194  RH  056%=      5-min Rain = 0
KCR2 031503Z 16014KT 29/20 A3005 RMK A01 T02890195  RH  057%=      5-min Rain = 0
KCR2 031504Z 17012KT 29/20 A3006 RMK A01 T02890196  RH  057%=      5-min Rain = 0
KCR2 031505Z 16012KT 29/20 A3006 RMK A01 T02890195  RH  057%=      5-min Rain = 0
KCR2 031506Z 15012KT 29/20 A3006 RMK A01 T02900196  RH  057%=      5-min Rain = 0
KCR2 031507Z 15012KT 29/20 A3005 RMK A01 T02920196  RH  056%=      5-min Rain = 0
KCR2 031508Z 15013KT 29/20 A3006 RMK A01 T02920196  RH  056%=      5-min Rain = 0
KCR2 031509Z 15012KT 29/20 A3006 RMK A01 T02920196  RH  056%=      5-min Rain = 0
KCR2 031510Z 15012KT 29/20 A3005 RMK A01 T02920195  RH  056%=      5-min Rain = 0
KCR2 031511Z 17011KT 29/20 A3005 RMK A01 T02920195  RH  056%=      5-min Rain = 0
KCR2 031512Z 16009KT 29/20 A3005 RMK A01 T02920195  RH  056%=      5-min Rain = 0
KCR2 031513Z 17010KT 29/20 A3005 RMK A01 T02940196  RH  056%=      5-min Rain = 0
KCR2 031514Z 14010KT 30/20 A3006 RMK A01 T02960197  RH  055%=      5-min Rain = 0
KCR2 031515Z 14010KT 30/20 A3006 RMK A01 T02950196  RH  055%=      5-min Rain = 0
KCR2 031516Z 15012KT 29/20 A3005 RMK A01 T02930197  RH  056%=      5-min Rain = 0
KCR2 031517Z 16012KT 29/20 A3006 RMK A01 T02920196  RH  056%=      5-min Rain = 0
KCR2 031518Z 15010KT 29/20 A3006 RMK A01 T02920197  RH  056%=      5-min Rain = 0
KCR2 031519Z 16011KT 29/20 A3006 RMK A01 T02920197  RH  056%=      5-min Rain = 0
KCR2 031520Z 17010KT 29/20 A3006 RMK A01 T02930196  RH  056%=      5-min Rain = 0
KCR2 031521Z 16011KT 29/20 A3006 RMK A01 T02930195  RH  056%=      5-min Rain = 0
KCR2 031522Z 18012KT 29/20 A3006 RMK A01 T02940195  RH  055%=      5-min Rain = 0
KCR2 031523Z 18011KT 30/20 A3006 RMK A01 T02970195  RH  054%=      5-min Rain = 0
KCR2 031524Z 19010KT 30/20 A3006 RMK A01 T02990196  RH  054%=      5-min Rain = 0
KCR2 031525Z 19009KT 30/20 A3006 RMK A01 T02980196  RH  054%=      5-min Rain = 0
KCR2 031526Z 17012KT 30/20 A3006 RMK A01 T02970196  RH  054%=      5-min Rain = 0
KCR2 031527Z 16010KT 30/20 A3006 RMK A01 T02960195  RH  055%=      5-min Rain = 0
KCR2 031528Z 15009KT 30/20 A3006 RMK A01 T02960195  RH  055%=      5-min Rain = 0
KCR2 031529Z 15011KT 30/20 A3006 RMK A01 T02960195  RH  055%=      5-min Rain = 0
KCR2 031530Z 18011KT 30/19 A3006 RMK A01 T02960193  RH  054%=      5-min Rain = 0
KCR2 031531Z 17012KT 30/19 A3006 RMK A01 T02970193  RH  054%=      5-min Rain = 0
KCR2 031532Z 17009KT 30/19 A3006 RMK A01 T02980194  RH  054%=      5-min Rain = 0
KCR2 031533Z 18012KT 30/20 A3006 RMK A01 T03000195  RH  053%=      5-min Rain = 0
KCR2 031534Z 18013KT 30/19 A3006 RMK A01 T02980194  RH  054%=      5-min Rain = 0
KCR2 031535Z 18015KT 30/19 A3005 RMK A01 T02970194  RH  054%=      5-min Rain = 0
KCR2 031536Z 18011KT 30/19 A3006 RMK A01 T02970194  RH  054%=      5-min Rain = 0
KCR2 031537Z 18013KT 30/20 A3006 RMK A01 T02990195  RH  054%=      5-min Rain = 0
KCR2 031538Z 17011KT 30/19 A3006 RMK A01 T02990194  RH  053%=      5-min Rain = 0
KCR2 031539Z 17012KT 30/19 A3005 RMK A01 T03010194  RH  053%=      5-min Rain = 0
KCR2 031540Z 17015KT 30/19 A3005 RMK A01 T03020194  RH  052%=      5-min Rain = 0
KCR2 031541Z 18012KT 30/19 A3005 RMK A01 T03030194  RH  052%=      5-min Rain = 0
KCR2 031542Z 17013KT 30/19 A3005 RMK A01 T03030193  RH  052%=      5-min Rain = 0
KCR2 031543Z 16013KT 30/19 A3005 RMK A01 T03010192  RH  052%=      5-min Rain = 0
KCR2 031544Z 18011KT 30/19 A3005 RMK A01 T03010192  RH  052%=      5-min Rain = 0
KCR2 031545Z 18011KT 30/19 A3005 RMK A01 T03020191  RH  051%=      5-min Rain = 0
KCR2 031546Z 18010KT 30/19 A3005 RMK A01 T03020192  RH  052%=      5-min Rain = 0
KCR2 031547Z 17012KT 30/19 A3005 RMK A01 T03020193  RH  052%=      5-min Rain = 0
KCR2 031548Z 15011KT 30/19 A3005 RMK A01 T03020193  RH  052%=      5-min Rain = 0
KCR2 031549Z 13011KT 30/19 A3005 RMK A01 T03020194  RH  052%=      5-min Rain = 0
KCR2 031550Z 15009KT 30/19 A3005 RMK A01 T03020194  RH  053%=      5-min Rain = 0
KCR2 031551Z 16011KT 30/20 A3005 RMK A01 T03030195  RH  052%=      5-min Rain = 0
KCR2 031552Z 16011KT 31/20 A3005 RMK A01 T03060195  RH  052%=      5-min Rain = 0
KCR2 031553Z 16013KT 31/19 A3005 RMK A01 T03060194  RH  051%=      5-min Rain = 0
KCR2 031554Z 17012KT 31/19 A3005 RMK A01 T03060192  RH  051%=      5-min Rain = 0
KCR2 031555Z 17010KT 31/19 A3005 RMK A01 T03050193  RH  051%=      5-min Rain = 0
KCR2 031556Z 14010KT 31/19 A3005 RMK A01 T03060193  RH  051%=      5-min Rain = 0
KCR2 031557Z 14010KT 31/19 A3005 RMK A01 T03070194  RH  051%=      5-min Rain = 0
KCR2 031558Z 16010KT 31/20 A3005 RMK A01 T03100195  RH  050%=      5-min Rain = 0
KCR2 031559Z 16013KT 31/19 A3005 RMK A01 T03120193  RH  049%=      5-min Rain = 0
KCR2 031600Z 17012KT 31/19 A3005 RMK A01 T03110191  RH  049%=      5-min Rain = 0
KCR2 031601Z 17012KT 31/19 A3005 RMK A01 T03100190  RH  049%=      5-min Rain = 0
KCR2 031602Z 17013KT 31/19 A3005 RMK A01 T03100191  RH  049%=      5-min Rain = 0
KCR2 031603Z 16012KT 31/19 A3005 RMK A01 T03080191  RH  050%=      5-min Rain = 0
KCR2 031604Z 17011KT 31/19 A3005 RMK A01 T03080193  RH  051%=      5-min Rain = 0
KCR2 031605Z 16009KT 31/19 A3005 RMK A01 T03080194  RH  051%=      5-min Rain = 0
KCR2 031606Z 15011KT 31/19 A3005 RMK A01 T03100192  RH  049%=      5-min Rain = 0
KCR2 031607Z 16011KT 31/19 A3005 RMK A01 T03090191  RH  049%=      5-min Rain = 0
KCR2 031608Z 16011KT 31/19 A3005 RMK A01 T03120191  RH  048%=      5-min Rain = 0
KCR2 031609Z 15011KT 31/19 A3005 RMK A01 T03130191  RH  048%=      5-min Rain = 0
KCR2 031610Z 16008KT 31/19 A3005 RMK A01 T03130192  RH  049%=      5-min Rain = 0
KCR2 031611Z 17011KT 32/19 A3005 RMK A01 T03150192  RH  048%=      5-min Rain = 0
KCR2 031612Z 17010KT 31/19 A3005 RMK A01 T03140191  RH  048%=      5-min Rain = 0
KCR2 031613Z 17009KT 31/19 A3005 RMK A01 T03120191  RH  049%=      5-min Rain = 0
KCR2 031614Z 18010KT 31/19 A3005 RMK A01 T03110192  RH  049%=      5-min Rain = 0
KCR2 031615Z 17013KT 31/19 A3005 RMK A01 T03130192  RH  048%=      5-min Rain = 0
KCR2 031616Z 18012KT 32/19 A3005 RMK A01 T03160190  RH  047%=      5-min Rain = 0
KCR2 031617Z 17010KT 31/19 A3005 RMK A01 T03140189  RH  047%=      5-min Rain = 0
KCR2 031618Z 17009KT 31/19 A3005 RMK A01 T03120190  RH  048%=      5-min Rain = 0
KCR2 031619Z 17009KT 31/19 A3005 RMK A01 T03110188  RH  048%=      5-min Rain = 0
KCR2 031620Z 16012KT 31/19 A3005 RMK A01 T03100190  RH  049%=      5-min Rain = 0
KCR2 031621Z 16011KT 31/19 A3005 RMK A01 T03120192  RH  049%=      5-min Rain = 0
KCR2 031622Z 16011KT 31/19 A3005 RMK A01 T03120192  RH  049%=      5-min Rain = 0
KCR2 031623Z 14012KT 31/19 A3005 RMK A01 T03120190  RH  048%=      5-min Rain = 0
KCR2 031624Z 14011KT 31/19 A3005 RMK A01 T03130190  RH  048%=      5-min Rain = 0
KCR2 031625Z 14008KT 31/19 A3005 RMK A01 T03140189  RH  047%=      5-min Rain = 0
KCR2 031626Z 14008KT 32/19 A3005 RMK A01 T03150190  RH  048%=      5-min Rain = 0
KCR2 031627Z 14012KT 32/19 A3005 RMK A01 T03160191  RH  048%=      5-min Rain = 0
KCR2 031628Z 17012KT 32/19 A3005 RMK A01 T03160191  RH  048%=      5-min Rain = 0
KCR2 031629Z 17011KT 32/19 A3005 RMK A01 T03170192  RH  048%=      5-min Rain = 0
KCR2 031630Z 18012KT 32/19 A3005 RMK A01 T03200191  RH  047%=      5-min Rain = 0
KCR2 031631Z 16013KT 32/19 A3005 RMK A01 T03210191  RH  046%=      5-min Rain = 0
KCR2 031632Z 15012KT 32/19 A3005 RMK A01 T03200191  RH  046%=      5-min Rain = 0
KCR2 031633Z 14010KT 32/19 A3005 RMK A01 T03180190  RH  047%=      5-min Rain = 0
KCR2 031634Z 14010KT 32/19 A3005 RMK A01 T03170190  RH  047%=      5-min Rain = 0
KCR2 031635Z 15008KT 32/19 A3005 RMK A01 T03160190  RH  047%=      5-min Rain = 0
KCR2 031636Z 15011KT 32/19 A3005 RMK A01 T03160190  RH  047%=      5-min Rain = 0
KCR2 031637Z 14011KT 32/19 A3005 RMK A01 T03170191  RH  047%=      5-min Rain = 0
KCR2 031638Z 17013KT 32/19 A3005 RMK A01 T03180191  RH  047%=      5-min Rain = 0
KCR2 031639Z 17015KT 32/19 A3005 RMK A01 T03190187  RH  045%=      5-min Rain = 0
KCR2 031640Z 18012KT 32/18 A3005 RMK A01 T03180184  RH  045%=      5-min Rain = 0
KCR2 031641Z 17010KT 32/18 A3005 RMK A01 T03170183  RH  045%=      5-min Rain = 0
KCR2 031642Z 16008KT 32/19 A3005 RMK A01 T03170185  RH  045%=      5-min Rain = 0
KCR2 031643Z 16008KT 32/18 A3005 RMK A01 T03170183  RH  045%=      5-min Rain = 0
KCR2 031644Z 17007KT 32/19 A3005 RMK A01 T03160186  RH  046%=      5-min Rain = 0
KCR2 031645Z 16009KT 32/19 A3005 RMK A01 T03160188  RH  047%=      5-min Rain = 0
KCR2 031646Z 17009KT 32/19 A3005 RMK A01 T03180188  RH  046%=      5-min Rain = 0
KCR2 031647Z 18009KT 32/19 A3005 RMK A01 T03220187  RH  045%=      5-min Rain = 0
KCR2 031648Z 18010KT 33/18 A3005 RMK A01 T03250184  RH  043%=      5-min Rain = 0
KCR2 031649Z 20011KT 32/18 A3005 RMK A01 T03240181  RH  043%=      5-min Rain = 0
KCR2 031650Z 20011KT 32/18 A3005 RMK A01 T03240184  RH  043%=      5-min Rain = 0
KCR2 031651Z 18008KT 32/19 A3005 RMK A01 T03210185  RH  044%=      5-min Rain = 0
KCR2 031652Z 17012KT 32/19 A3005 RMK A01 T03230187  RH  045%=      5-min Rain = 0
KCR2 031653Z 16012KT 32/19 A3005 RMK A01 T03230188  RH  045%=      5-min Rain = 0
KCR2 031654Z 17009KT 32/19 A3005 RMK A01 T03240188  RH  045%=      5-min Rain = 0
KCR2 031655Z 17011KT 32/19 A3005 RMK A01 T03240189  RH  045%=      5-min Rain = 0
KCR2 031656Z 17011KT 33/19 A3005 RMK A01 T03270190  RH  044%=      5-min Rain = 0
KCR2 031657Z 16012KT 33/19 A3005 RMK A01 T03310188  RH  043%=      5-min Rain = 0
KCR2 031658Z 16009KT 33/19 A3005 RMK A01 T03290188  RH  043%=      5-min Rain = 0
KCR2 031659Z 15009G14KT 33/19 A3005 RMK A01 T03270187  RH  044%=      5-min Rain = 0
KCR2 031700Z 18015KT 33/19 A3005 RMK A01 T03260186  RH  044%=      5-min Rain = 0
KCR2 031701Z 17010KT 33/19 A3005 RMK A01 T03250186  RH  044%=      5-min Rain = 0
KCR2 031702Z 16009KT 33/19 A3005 RMK A01 T03260186  RH  043%=      5-min Rain = 0
KCR2 031703Z 15010KT 33/19 A3005 RMK A01 T03270185  RH  043%=      5-min Rain = 0
KCR2 031704Z 15010KT 33/18 A3005 RMK A01 T03260184  RH  043%=      5-min Rain = 0
KCR2 031705Z 15008KT 33/18 A3005 RMK A01 T03260183  RH  043%=      5-min Rain = 0
KCR2 031706Z 16006KT 33/18 A3005 RMK A01 T03260182  RH  042%=      5-min Rain = 0
KCR2 031707Z 18010G15KT 33/18 A3004 RMK A01 T03260184  RH  043%=      5-min Rain = 0
KCR2 031708Z 18013KT 33/19 A3004 RMK A01 T03280185  RH  043%=      5-min Rain = 0
KCR2 031709Z 18012KT 33/19 A3004 RMK A01 T03310186  RH  042%=      5-min Rain = 0
KCR2 031710Z 18008KT 33/19 A3004 RMK A01 T03310187  RH  043%=      5-min Rain = 0
KCR2 031711Z 16007KT 33/19 A3004 RMK A01 T03290185  RH  042%=      5-min Rain = 0
KCR2 031712Z 16011KT 33/19 A3004 RMK A01 T03290185  RH  042%=      5-min Rain = 0
KCR2 031713Z 16010KT 33/18 A3004 RMK A01 T03290183  RH  042%=      5-min Rain = 0
KCR2 031714Z 16008KT 33/18 A3004 RMK A01 T03280181  RH  042%=      5-min Rain = 0
KCR2 031715Z 16010KT 33/18 A3004 RMK A01 T03280182  RH  042%=      5-min Rain = 0
KCR2 031716Z 15011KT 33/18 A3004 RMK A01 T03280181  RH  042%=      5-min Rain = 0
KCR2 031717Z 14011KT 33/18 A3004 RMK A01 T03320183  RH  041%=      5-min Rain = 0
KCR2 031718Z 14010KT 34/18 A3004 RMK A01 T03360184  RH  041%=      5-min Rain = 0
KCR2 031719Z 14011KT 33/18 A3004 RMK A01 T03330182  RH  041%=      5-min Rain = 0
KCR2 031720Z 16012KT 33/18 A3004 RMK A01 T03310181  RH  041%=      5-min Rain = 0
KCR2 031721Z 19011KT 33/18 A3004 RMK A01 T03320181  RH  041%=      5-min Rain = 0
KCR2 031722Z 18010KT 33/18 A3004 RMK A01 T03300179  RH  041%=      5-min Rain = 0
KCR2 031723Z 18009KT 33/18 A3004 RMK A01 T03290181  RH  041%=      5-min Rain = 0
KCR2 031724Z 17009KT 33/18 A3004 RMK A01 T03290183  RH  042%=      5-min Rain = 0
KCR2 031725Z 16011KT 33/18 A3004 RMK A01 T03310183  RH  041%=      5-min Rain = 0
KCR2 031726Z 16012KT 33/18 A3004 RMK A01 T03330184  RH  041%=      5-min Rain = 0
KCR2 031727Z 16011KT 33/18 A3004 RMK A01 T03330183  RH  041%=      5-min Rain = 0
KCR2 031728Z 16011KT 33/18 A3004 RMK A01 T03340182  RH  041%=      5-min Rain = 0
KCR2 031729Z 16014KT 34/18 A3004 RMK A01 T03360183  RH  040%=      5-min Rain = 0
KCR2 031730Z 14012KT 34/18 A3004 RMK A01 T03370183  RH  040%=      5-min Rain = 0
KCR2 031731Z 14011KT 34/19 A3004 RMK A01 T03380185  RH  040%=      5-min Rain = 0
KCR2 031732Z 14012KT 34/19 A3004 RMK A01 T03400185  RH  040%=      5-min Rain = 0
KCR2 031733Z 13010KT 34/18 A3004 RMK A01 T03390181  RH  039%=      5-min Rain = 0
KCR2 031734Z 13009KT 34/18 A3004 RMK A01 T03350182  RH  040%=      5-min Rain = 0
KCR2 031735Z 18010KT 33/18 A3004 RMK A01 T03340182  RH  041%=      5-min Rain = 0
KCR2 031736Z 20010KT 34/18 A3004 RMK A01 T03370180  RH  039%=      5-min Rain = 0
KCR2 031737Z 17010KT 33/18 A3004 RMK A01 T03340180  RH  040%=      5-min Rain = 0
KCR2 031738Z 15012KT 34/18 A3004 RMK A01 T03350180  RH  040%=      5-min Rain = 0
KCR2 031739Z 15011KT 33/18 A3004 RMK A01 T03340179  RH  040%=      5-min Rain = 0
KCR2 031740Z 16010KT 33/18 A3004 RMK A01 T03330179  RH  040%=      5-min Rain = 0
KCR2 031741Z 17008KT 33/18 A3004 RMK A01 T03330179  RH  040%=      5-min Rain = 0
KCR2 031742Z 18005KT 33/18 A3004 RMK A01 T03320178  RH  040%=      5-min Rain = 0
KCR2 031743Z 15007KT 33/18 A3004 RMK A01 T03310180  RH  041%=      5-min Rain = 0
KCR2 031744Z 16011KT 33/18 A3004 RMK A01 T03340182  RH  041%=      5-min Rain = 0
KCR2 031745Z 17013G19KT 34/18 A3003 RMK A01 T03380183  RH  040%=      5-min Rain = 0
KCR2 031746Z 14013KT 34/18 A3004 RMK A01 T03430179  RH  038%=      5-min Rain = 0
KCR2 031747Z 14013KT 34/18 A3004 RMK A01 T03420178  RH  038%=      5-min Rain = 0
KCR2 031748Z 15012KT 34/18 A3004 RMK A01 T03380177  RH  038%=      5-min Rain = 0
KCR2 031749Z 14010KT 34/18 A3004 RMK A01 T03380176  RH  038%=      5-min Rain = 0
KCR2 031750Z 16012KT 34/18 A3004 RMK A01 T03380179  RH  039%=      5-min Rain = 0
KCR2 031751Z 15011KT 34/18 A3004 RMK A01 T03390177  RH  038%=      5-min Rain = 0
KCR2 031752Z 15009KT 34/18 A3004 RMK A01 T03390176  RH  038%=      5-min Rain = 0
KCR2 031753Z 17008KT 34/18 A3004 RMK A01 T03350178  RH  039%=      5-min Rain = 0
KCR2 031754Z 16006KT 33/18 A3004 RMK A01 T03340179  RH  040%=      5-min Rain = 0
KCR2 031755Z 15005KT 33/18 A3004 RMK A01 T03340179  RH  040%=      5-min Rain = 0
KCR2 031756Z 16003KT 33/18 A3003 RMK A01 T03330178  RH  040%=      5-min Rain = 0
KCR2 031757Z 19004KT 34/18 A3003 RMK A01 T03350179  RH  040%=      5-min Rain = 0
KCR2 031758Z 17007KT 34/18 A3003 RMK A01 T03390181  RH  039%=      5-min Rain = 0
KCR2 031759Z 15011G17KT 34/18 A3003 RMK A01 T03410181  RH  039%=      5-min Rain = 0
KCR2 031800Z 16012KT 34/18 A3003 RMK A01 T03390180  RH  039%=      5-min Rain = 0
KCR2 031801Z 18007KT 34/18 A3003 RMK A01 T03380180  RH  039%=      5-min Rain = 0
KCR2 031802Z 19009KT 34/18 A3003 RMK A01 T03400180  RH  039%=      5-min Rain = 0
KCR2 031803Z 19006KT 34/18 A3003 RMK A01 T03380179  RH  039%=      5-min Rain = 0
KCR2 031804Z 16008KT 34/18 A3003 RMK A01 T03370179  RH  039%=      5-min Rain = 0
KCR2 031805Z 14008KT 34/18 A3003 RMK A01 T03410178  RH  038%=      5-min Rain = 0
KCR2 031806Z 14008G13KT 34/18 A3003 RMK A01 T03390177  RH  038%=      5-min Rain = 0
KCR2 031807Z 14011KT 34/18 A3003 RMK A01 T03380177  RH  039%=      5-min Rain = 0
KCR2 031808Z 14008KT 34/18 A3003 RMK A01 T03400177  RH  038%=      5-min Rain = 0
KCR2 031809Z 16007KT 34/18 A3003 RMK A01 T03410177  RH  038%=      5-min Rain = 0
KCR2 031810Z 17007KT 34/18 A3003 RMK A01 T03420175  RH  037%=      5-min Rain = 0
KCR2 031811Z 17005KT 34/18 A3003 RMK A01 T03400175  RH  037%=      5-min Rain = 0
KCR2 031812Z 15011G19KT 34/18 A3003 RMK A01 T03400176  RH  038%=      5-min Rain = 0
KCR2 031813Z 16011KT 34/18 A3003 RMK A01 T03440177  RH  037%=      5-min Rain = 0
KCR2 031814Z 18011KT 35/18 A3003 RMK A01 T03470176  RH  036%=      5-min Rain = 0
KCR2 031815Z 18009KT 35/18 A3003 RMK A01 T03460176  RH  037%=      5-min Rain = 0
KCR2 031816Z 16010KT 35/18 A3003 RMK A01 T03460178  RH  037%=      5-min Rain = 0
KCR2 031817Z 17011KT 35/18 A3003 RMK A01 T03490178  RH  036%=      5-min Rain = 0
KCR2 031818Z 16008KT 35/18 A3003 RMK A01 T03470176  RH  036%=      5-min Rain = 0
KCR2 031819Z 17009KT 34/18 A3003 RMK A01 T03430177  RH  037%=      5-min Rain = 0
KCR2 031820Z 17010KT 34/18 A3003 RMK A01 T03410178  RH  038%=      5-min Rain = 0
KCR2 031821Z 17008KT 34/18 A3003 RMK A01 T03390179  RH  039%=      5-min Rain = 0
KCR2 031822Z 18004KT 34/18 A3003 RMK A01 T03390178  RH  038%=      5-min Rain = 0
KCR2 031823Z 20009KT 34/18 A3003 RMK A01 T03390178  RH  039%=      5-min Rain = 0
KCR2 031824Z 21009KT 34/18 A3003 RMK A01 T03420177  RH  038%=      5-min Rain = 0
KCR2 031825Z 19010KT 35/18 A3002 RMK A01 T03450177  RH  037%=      5-min Rain = 0
KCR2 031826Z 15012KT 35/18 A3003 RMK A01 T03480175  RH  036%=      5-min Rain = 0
KCR2 031827Z 16011KT 35/17 A3003 RMK A01 T03470173  RH  036%=      5-min Rain = 0
KCR2 031828Z 16008KT 34/17 A3003 RMK A01 T03440174  RH  036%=      5-min Rain = 0
KCR2 031829Z 19006KT 34/17 A3002 RMK A01 T03420172  RH  036%=      5-min Rain = 0
KCR2 031830Z 15005KT 34/17 A3002 RMK A01 T03400173  RH  037%=      5-min Rain = 0
KCR2 031831Z 14008KT 34/17 A3002 RMK A01 T03420174  RH  037%=      5-min Rain = 0
KCR2 031832Z 15003KT 34/17 A3002 RMK A01 T03420173  RH  037%=      5-min Rain = 0
KCR2 031833Z 16004KT 34/17 A3002 RMK A01 T03420173  RH  037%=      5-min Rain = 0
KCR2 031834Z 15008G13KT 34/18 A3002 RMK A01 T03440175  RH  037%=      5-min Rain = 0
KCR2 031835Z 13007KT 35/17 A3002 RMK A01 T03460174  RH  036%=      5-min Rain = 0
KCR2 031836Z 12006KT 35/17 A3002 RMK A01 T03460174  RH  036%=      5-min Rain = 0
KCR2 031837Z 12012KT 35/17 A3002 RMK A01 T03480169  RH  035%=      5-min Rain = 0
KCR2 031838Z 12010KT 35/16 A3002 RMK A01 T03510164  RH  033%=      5-min Rain = 0
KCR2 031839Z 12011KT 35/16 A3002 RMK A01 T03510164  RH  033%=      5-min Rain = 0
KCR2 031840Z 11009KT 35/16 A3002 RMK A01 T03490163  RH  033%=      5-min Rain = 0
KCR2 031841Z 13010KT 35/17 A3002 RMK A01 T03470168  RH  035%=      5-min Rain = 0
KCR2 031842Z 13007KT 35/17 A3002 RMK A01 T03470169  RH  035%=      5-min Rain = 0
KCR2 031843Z 07005KT 35/17 A3002 RMK A01 T03450170  RH  035%=      5-min Rain = 0
KCR2 031844Z 09005G13KT 34/17 A3002 RMK A01 T03430171  RH  036%=      5-min Rain = 0
KCR2 031845Z 12012KT 35/17 A3002 RMK A01 T03460172  RH  036%=      5-min Rain = 0
KCR2 031846Z 12011KT 35/17 A3002 RMK A01 T03510172  RH  035%=      5-min Rain = 0
KCR2 031847Z 11008KT 35/17 A3002 RMK A01 T03480171  RH  035%=      5-min Rain = 0
KCR2 031848Z 12008KT 34/17 A3002 RMK A01 T03430170  RH  036%=      5-min Rain = 0
KCR2 031849Z 12010KT 35/17 A3002 RMK A01 T03450170  RH  035%=      5-min Rain = 0
KCR2 031850Z 12012KT 35/17 A3002 RMK A01 T03480168  RH  034%=      5-min Rain = 0
KCR2 031851Z 14005KT 35/17 A3002 RMK A01 T03490166  RH  034%=      5-min Rain = 0
KCR2 031852Z 13006KT 35/17 A3001 RMK A01 T03480166  RH  034%=      5-min Rain = 0
KCR2 031853Z 14009G15KT 35/17 A3002 RMK A01 T03480168  RH  035%=      5-min Rain = 0
KCR2 031854Z 14015KT 35/17 A3001 RMK A01 T03520172  RH  035%=      5-min Rain = 0
KCR2 031855Z 13011KT 36/17 A3002 RMK A01 T03560174  RH  034%=      5-min Rain = 0
KCR2 031856Z 13011KT 35/17 A3001 RMK A01 T03540172  RH  034%=      5-min Rain = 0
KCR2 031857Z 12009KT 35/17 A3001 RMK A01 T03520171  RH  034%=      5-min Rain = 0
KCR2 031858Z 15010KT 35/17 A3001 RMK A01 T03480171  RH  035%=      5-min Rain = 0
KCR2 031859Z 18011KT 35/17 A3001 RMK A01 T03470173  RH  036%=      5-min Rain = 0
KCR2 031900Z 17007KT 35/17 A3001 RMK A01 T03490173  RH  035%=      5-min Rain = 0
KCR2 031901Z 17005KT 35/17 A3001 RMK A01 T03510173  RH  035%=      5-min Rain = 0
KCR2 031902Z 10007KT 35/17 A3001 RMK A01 T03530172  RH  034%=      5-min Rain = 0
KCR2 031903Z 11010KT 36/17 A3001 RMK A01 T03560171  RH  034%=      5-min Rain = 0
KCR2 031904Z 11012KT 36/17 A3001 RMK A01 T03600171  RH  033%=      5-min Rain = 0
KCR2 031905Z 14013KT 36/17 A3001 RMK A01 T03600171  RH  033%=      5-min Rain = 0
KCR2 031906Z 13010KT 36/17 A3001 RMK A01 T03610169  RH  032%=      5-min Rain = 0
KCR2 031907Z 16009G14KT 36/17 A3001 RMK A01 T03580168  RH  032%=      5-min Rain = 0
KCR2 031908Z 14011KT 36/17 A3001 RMK A01 T03550167  RH  033%=      5-min Rain = 0
KCR2 031909Z 14010KT 36/17 A3001 RMK A01 T03560168  RH  033%=      5-min Rain = 0
KCR2 031910Z 17009KT 36/17 A3001 RMK A01 T03550169  RH  033%=      5-min Rain = 0
KCR2 031911Z 17008KT 35/17 A3001 RMK A01 T03520169  RH  034%=      5-min Rain = 0
KCR2 031912Z 16005KT 35/17 A3001 RMK A01 T03520171  RH  034%=      5-min Rain = 0
KCR2 031913Z 16006KT 36/17 A3001 RMK A01 T03550172  RH  034%=      5-min Rain = 0
KCR2 031914Z 15006KT 36/17 A30 RMK A01 T03550173  RH  034%=      5-min Rain = 0
KCR2 031915Z 17009KT 35/17 A30 RMK A01 T03530172  RH  034%=      5-min Rain = 0
KCR2 031916Z 17013KT 36/17 A30 RMK A01 T03550170  RH  034%=      5-min Rain = 0
KCR2 031917Z 17014KT 36/17 A30 RMK A01 T03560170  RH  033%=      5-min Rain = 0
KCR2 031918Z 17010KT 36/17 A30 RMK A01 T03550171  RH  034%=      5-min Rain = 0
KCR2 031919Z 18010KT 36/17 A30 RMK A01 T03560171  RH  033%=      5-min Rain = 0
KCR2 031920Z 18011KT 36/17 A30 RMK A01 T03560171  RH  034%=      5-min Rain = 0
KCR2 031921Z 18014KT 36/17 A30 RMK A01 T03570171  RH  033%=      5-min Rain = 0
KCR2 031922Z 19014KT 36/17 A30 RMK A01 T03600172  RH  033%=      5-min Rain = 0
KCR2 031923Z 15012KT 36/17 A30 RMK A01 T03620171  RH  033%=      5-min Rain = 0
KCR2 031924Z 14012KT 36/17 A30 RMK A01 T03610172  RH  033%=      5-min Rain = 0
KCR2 031925Z 13009KT 36/17 A30 RMK A01 T03630172  RH  032%=      5-min Rain = 0
KCR2 031926Z 14013KT 36/17 A30 RMK A01 T03620171  RH  032%=      5-min Rain = 0
KCR2 031927Z 13015KT 36/17 A30 RMK A01 T03600170  RH  032%=      5-min Rain = 0
KCR2 031928Z 13012KT 36/17 A30 RMK A01 T03560169  RH  033%=      5-min Rain = 0
KCR2 031929Z 13012KT 36/17 A30 RMK A01 T03550168  RH  033%=      5-min Rain = 0
KCR2 031930Z 16011KT 36/17 A30 RMK A01 T03570168  RH  033%=      5-min Rain = 0
KCR2 031931Z 16007KT 36/17 A30 RMK A01 T03550167  RH  033%=      5-min Rain = 0
KCR2 031932Z 15007KT 35/17 A30 RMK A01 T03520167  RH  033%=      5-min Rain = 0
KCR2 031933Z 16007KT 35/17 A30 RMK A01 T03530167  RH  033%=      5-min Rain = 0
KCR2 031934Z 16009KT 36/17 A30 RMK A01 T03570168  RH  033%=      5-min Rain = 0
KCR2 031935Z 16007KT 36/17 A30 RMK A01 T03610168  RH  032%=      5-min Rain = 0
KCR2 031936Z 16008KT 36/17 A30 RMK A01 T03620170  RH  032%=      5-min Rain = 0
KCR2 031937Z 13008KT 36/17 A30 RMK A01 T03580170  RH  033%=      5-min Rain = 0
KCR2 031938Z 11007KT 36/17 A2999 RMK A01 T03570170  RH  033%=      5-min Rain = 0
KCR2 031939Z 12010KT 35/17 A2999 RMK A01 T03530172  RH  034%=      5-min Rain = 0
KCR2 031940Z 13012KT 35/17 A2999 RMK A01 T03530172  RH  034%=      5-min Rain = 0
KCR2 031941Z 14010KT 35/17 A2999 RMK A01 T03530172  RH  034%=      5-min Rain = 0
KCR2 031942Z 13008KT 35/17 A2999 RMK A01 T03520172  RH  034%=      5-min Rain = 0
KCR2 031943Z 14007KT 35/17 A2999 RMK A01 T03530172  RH  034%=      5-min Rain = 0
KCR2 031944Z 16011G18KT 36/17 A2999 RMK A01 T03600173  RH  033%=      5-min Rain = 0
KCR2 031945Z 19011KT 37/17 A2999 RMK A01 T03650169  RH  031%=      5-min Rain = 0
KCR2 031946Z 20014KT 36/17 A2999 RMK A01 T03630169  RH  032%=      5-min Rain = 0
KCR2 031947Z 18013KT 37/17 A2999 RMK A01 T03660168  RH  031%=      5-min Rain = 0
KCR2 031948Z 17013KT 37/17 A2999 RMK A01 T03670168  RH  031%=      5-min Rain = 0
KCR2 031949Z 17010KT 37/17 A2999 RMK A01 T03650166  RH  031%=      5-min Rain = 0
KCR2 031950Z 18009KT 36/17 A2999 RMK A01 T03630168  RH  032%=      5-min Rain = 0
KCR2 031951Z 15007KT 37/17 A2999 RMK A01 T03690168  RH  031%=      5-min Rain = 0
KCR2 031952Z 17005KT 37/17 A2999 RMK A01 T03670166  RH  031%=      5-min Rain = 0
KCR2 031953Z 19005KT 37/17 A2999 RMK A01 T03660166  RH  031%=      5-min Rain = 0
KCR2 031954Z 21004KT 37/17 A2999 RMK A01 T03650165  RH  031%=      5-min Rain = 0
KCR2 031955Z 15005G10KT 36/17 A2999 RMK A01 T03610165  RH  031%=      5-min Rain = 0
KCR2 031956Z 16010G15KT 36/17 A2999 RMK A01 T03620165  RH  031%=      5-min Rain = 0
KCR2 031957Z 17014KT 36/16 A2999 RMK A01 T03620163  RH  031%=      5-min Rain = 0
KCR2 031958Z 18015KT 37/16 A2999 RMK A01 T03650164  RH  030%=      5-min Rain = 0
KCR2 031959Z 18012G19KT 37/16 A2999 RMK A01 T03660164  RH  030%=      5-min Rain = 0
KCR2 032000Z 18013KT 36/16 A2999 RMK A01 T03640161  RH  030%=      5-min Rain = 0
KCR2 032001Z 18011KT 36/16 A2999 RMK A01 T03640159  RH  030%=      5-min Rain = 0
KCR2 032002Z 17008KT 36/16 A2999 RMK A01 T03640161  RH  030%=      5-min Rain = 0
KCR2 032003Z 18008KT 36/16 A2999 RMK A01 T03620160  RH  030%=      5-min Rain = 0
KCR2 032004Z 19007KT 36/16 A2999 RMK A01 T03610160  RH  030%=      5-min Rain = 0
KCR2 032005Z 19008KT 36/16 A2999 RMK A01 T03630162  RH  030%=      5-min Rain = 0
KCR2 032006Z 20007KT 37/16 A2999 RMK A01 T03650160  RH  030%=      5-min Rain = 0
KCR2 032007Z 20006KT 36/16 A2999 RMK A01 T03640160  RH  030%=      5-min Rain = 0
KCR2 032008Z 19004KT 36/16 A2999 RMK A01 T03620161  RH  030%=      5-min Rain = 0
KCR2 032009Z 13006KT 36/16 A2999 RMK A01 T03630162  RH  031%=      5-min Rain = 0
KCR2 032010Z 15007KT 36/17 A2999 RMK A01 T03630165  RH  031%=      5-min Rain = 0
KCR2 032011Z 15008KT 37/17 A2999 RMK A01 T03660165  RH  031%=      5-min Rain = 0
KCR2 032012Z 15011G16KT 36/17 A2999 RMK A01 T03640165  RH  031%=      5-min Rain = 0
KCR2 032013Z 14013KT 37/17 A2999 RMK A01 T03660167  RH  031%=      5-min Rain = 0
KCR2 032014Z 14011KT 37/17 A2999 RMK A01 T03660166  RH  031%=      5-min Rain = 0
KCR2 032015Z 14011KT 36/17 A2999 RMK A01 T03620165  RH  031%=      5-min Rain = 0
KCR2 032016Z 11010KT 36/16 A2999 RMK A01 T03600164  RH  031%=      5-min Rain = 0
KCR2 032017Z 08008KT 36/16 A2998 RMK A01 T03570163  RH  032%=      5-min Rain = 0
KCR2 032018Z 11007KT 36/17 A2998 RMK A01 T03560165  RH  032%=      5-min Rain = 0
KCR2 032019Z 13007KT 36/17 A2998 RMK A01 T03570165  RH  032%=      5-min Rain = 0
KCR2 032020Z 17008KT 36/17 A2998 RMK A01 T03580165  RH  032%=      5-min Rain = 0
KCR2 032021Z 16009G15KT 36/17 A2998 RMK A01 T03630165  RH  031%=      5-min Rain = 0
KCR2 032022Z 17012KT 37/17 A2998 RMK A01 T03680165  RH  030%=      5-min Rain = 0
KCR2 032023Z 16011KT 37/16 A2998 RMK A01 T03680164  RH  030%=      5-min Rain = 0
KCR2 032024Z 16012KT 37/16 A2998 RMK A01 T03670164  RH  030%=      5-min Rain = 0
KCR2 032025Z 15010KT 37/16 A2998 RMK A01 T03650162  RH  030%=      5-min Rain = 0
KCR2 032026Z 16009KT 37/17 A2998 RMK A01 T03670165  RH  030%=      5-min Rain = 0
KCR2 032027Z 14010KT 37/17 A2998 RMK A01 T03740166  RH  029%=      5-min Rain = 0
KCR2 032028Z 12012G17KT 38/16 A2998 RMK A01 T03760164  RH  029%=      5-min Rain = 0
KCR2 032029Z 11011KT 37/16 A2998 RMK A01 T03710160  RH  029%=      5-min Rain = 0
KCR2 032030Z 08008KT 36/16 A2998 RMK A01 T03620159  RH  030%=      5-min Rain = 0
KCR2 032031Z 08007KT 36/16 A2998 RMK A01 T03610161  RH  031%=      5-min Rain = 0
KCR2 032032Z 10009KT 37/16 A2998 RMK A01 T03660163  RH  030%=      5-min Rain = 0
KCR2 032033Z 12005KT 37/16 A2998 RMK A01 T03660163  RH  030%=      5-min Rain = 0
KCR2 032034Z 16008KT 37/16 A2998 RMK A01 T03650163  RH  030%=      5-min Rain = 0
KCR2 032035Z 15006KT 36/16 A2998 RMK A01 T03630163  RH  031%=      5-min Rain = 0
KCR2 032036Z 15013KT 36/16 A2998 RMK A01 T03600162  RH  031%=      5-min Rain = 0
KCR2 032037Z 15010G16KT 36/16 A2998 RMK A01 T03600162  RH  031%=      5-min Rain = 0
KCR2 032038Z 13010KT 36/16 A2998 RMK A01 T03600162  RH  031%=      5-min Rain = 0
KCR2 032039Z 12008KT 36/16 A2998 RMK A01 T03580163  RH  031%=      5-min Rain = 0
KCR2 032040Z 11008KT 36/16 A2998 RMK A01 T03610163  RH  031%=      5-min Rain = 0
KCR2 032041Z 09008KT 36/16 A2997 RMK A01 T03620162  RH  031%=      5-min Rain = 0
KCR2 032042Z 10005KT 36/16 A2997 RMK A01 T03590161  RH  031%=      5-min Rain = 0
KCR2 032043Z 14005KT 36/16 A2998 RMK A01 T03590162  RH  031%=      5-min Rain = 0
KCR2 032044Z 18008KT 36/16 A2997 RMK A01 T03620161  RH  030%=      5-min Rain = 0
KCR2 032045Z 16010KT 36/16 A2997 RMK A01 T03630160  RH  030%=      5-min Rain = 0
KCR2 032046Z 15008KT 37/16 A2998 RMK A01 T03650162  RH  030%=      5-min Rain = 0
KCR2 032047Z 14010KT 37/16 A2997 RMK A01 T03700162  RH  029%=      5-min Rain = 0
KCR2 032048Z 16010KT 37/16 A2997 RMK A01 T03710161  RH  029%=      5-min Rain = 0
KCR2 032049Z 17008KT 37/16 A2998 RMK A01 T03690163  RH  030%=      5-min Rain = 0
KCR2 032050Z 16009KT 37/16 A2997 RMK A01 T03690162  RH  029%=      5-min Rain = 0
KCR2 032051Z 16011KT 37/16 A2997 RMK A01 T03690162  RH  029%=      5-min Rain = 0
KCR2 032052Z 15011KT 37/16 A2997 RMK A01 T03690161  RH  029%=      5-min Rain = 0
KCR2 032053Z 16009KT 37/16 A2997 RMK A01 T03670160  RH  029%=      5-min Rain = 0
KCR2 032054Z 15011KT 37/15 A2997 RMK A01 T03670154  RH  028%=      5-min Rain = 0
KCR2 032055Z 15007KT 37/15 A2997 RMK A01 T03670153  RH  028%=      5-min Rain = 0
KCR2 032056Z 14006KT 37/16 A2997 RMK A01 T03680155  RH  028%=      5-min Rain = 0
KCR2 032057Z 15007KT 37/16 A2997 RMK A01 T03670155  RH  028%=      5-min Rain = 0
KCR2 032058Z 14006KT 37/16 A2997 RMK A01 T03660155  RH  029%=      5-min Rain = 0
KCR2 032059Z 16003KT 36/15 A2997 RMK A01 T03640154  RH  029%=      5-min Rain = 0
KCR2 032100Z 15004KT 36/15 A2997 RMK A01 T03630154  RH  029%=      5-min Rain = 0
KCR2 032101Z 14004KT 37/15 A2997 RMK A01 T03650152  RH  028%=      5-min Rain = 0
KCR2 032102Z 15004KT 37/15 A2997 RMK A01 T03670153  RH  028%=      5-min Rain = 0
KCR2 032103Z 15005KT 37/15 A2997 RMK A01 T03680152  RH  028%=      5-min Rain = 0
KCR2 032104Z 16008KT 37/15 A2997 RMK A01 T03710154  RH  028%=      5-min Rain = 0
KCR2 032105Z 15004KT 37/15 A2997 RMK A01 T03700153  RH  028%=      5-min Rain = 0
KCR2 032106Z 14004KT 37/15 A2997 RMK A01 T03680153  RH  028%=      5-min Rain = 0
KCR2 032107Z 16009KT 37/16 A2997 RMK A01 T03680156  RH  029%=      5-min Rain = 0
KCR2 032108Z 17008KT 37/16 A2997 RMK A01 T03660159  RH  029%=      5-min Rain = 0
KCR2 032109Z 13011KT 37/16 A2997 RMK A01 T03680160  RH  029%=      5-min Rain = 0
KCR2 032110Z 12010KT 37/16 A2997 RMK A01 T03710160  RH  029%=      5-min Rain = 0
KCR2 032111Z 12011KT 37/16 A2997 RMK A01 T03690159  RH  029%=      5-min Rain = 0
KCR2 032112Z 11009KT 37/16 A2996 RMK A01 T03670158  RH  029%=      5-min Rain = 0
KCR2 032113Z 10009KT 37/16 A2996 RMK A01 T03670158  RH  029%=      5-min Rain = 0
KCR2 032114Z 14009KT 37/16 A2996 RMK A01 T03680157  RH  029%=      5-min Rain = 0
KCR2 032115Z 13005KT 37/16 A2996 RMK A01 T03680155  RH  028%=      5-min Rain = 0
KCR2 032116Z 12011KT 37/16 A2996 RMK A01 T03660156  RH  029%=      5-min Rain = 0
KCR2 032117Z 10009KT 37/16 A2996 RMK A01 T03690155  RH  028%=      5-min Rain = 0
KCR2 032118Z 11006KT 37/16 A2996 RMK A01 T03690155  RH  028%=      5-min Rain = 0
KCR2 032119Z 12011KT 37/16 A2996 RMK A01 T03700157  RH  028%=      5-min Rain = 0
KCR2 032120Z 12014KT 37/16 A2996 RMK A01 T03740157  RH  028%=      5-min Rain = 0
KCR2 032121Z 14011KT 37/16 A2996 RMK A01 T03720156  RH  028%=      5-min Rain = 0
KCR2 032122Z 14004G9KT 37/16 A2996 RMK A01 T03690156  RH  028%=      5-min Rain = 0
KCR2 032123Z 12001KT 37/16 A2996 RMK A01 T03670156  RH  029%=      5-min Rain = 0
KCR2 032124Z 13006KT 37/16 A2996 RMK A01 T03670155  RH  029%=      5-min Rain = 0
KCR2 032125Z 15007KT 37/15 A2996 RMK A01 T03670150  RH  028%=      5-min Rain = 0
KCR2 032126Z 17004KT 37/15 A2996 RMK A01 T03650149  RH  028%=      5-min Rain = 0
KCR2 032127Z 16006KT 37/15 A2996 RMK A01 T03650151  RH  028%=      5-min Rain = 0
KCR2 032128Z 13011KT 37/15 A2996 RMK A01 T03670154  RH  028%=      5-min Rain = 0
KCR2 032129Z 12014KT 37/16 A2996 RMK A01 T03710157  RH  028%=      5-min Rain = 0
KCR2 032130Z 15012KT 37/16 A2996 RMK A01 T03710157  RH  028%=      5-min Rain = 0
KCR2 032131Z 17014KT 37/16 A2996 RMK A01 T03730156  RH  028%=      5-min Rain = 0
KCR2 032132Z 17009KT 37/16 A2996 RMK A01 T03710155  RH  028%=      5-min Rain = 0
KCR2 032133Z 15010KT 37/16 A2996 RMK A01 T03700155  RH  028%=      5-min Rain = 0
KCR2 032134Z 16010G15KT 37/15 A2996 RMK A01 T03680154  RH  028%=      5-min Rain = 0
KCR2 032135Z 18011KT 37/15 A2996 RMK A01 T03680154  RH  028%=      5-min Rain = 0
KCR2 032136Z 17012KT 37/16 A2996 RMK A01 T03710156  RH  028%=      5-min Rain = 0
KCR2 032137Z 17010KT 38/15 A2996 RMK A01 T03800154  RH  026%=      5-min Rain = 0
KCR2 032138Z 17006KT 38/15 A2996 RMK A01 T03800150  RH  026%=      5-min Rain = 0
KCR2 032139Z 19008KT 38/15 A2996 RMK A01 T03760149  RH  026%=      5-min Rain = 0
KCR2 032140Z 20006KT 37/15 A2996 RMK A01 T03740146  RH  026%=      5-min Rain = 0
KCR2 032141Z 16006KT 37/15 A2996 RMK A01 T03700148  RH  027%=      5-min Rain = 0
KCR2 032142Z 14010KT 37/15 A2996 RMK A01 T03710150  RH  027%=      5-min Rain = 0
KCR2 032143Z 12009KT 38/15 A2996 RMK A01 T03760154  RH  027%=      5-min Rain = 0
KCR2 032144Z 15010G16KT 38/16 A2996 RMK A01 T03780155  RH  027%=      5-min Rain = 0
KCR2 032145Z 15014G19KT 38/15 A2996 RMK A01 T03780153  RH  026%=      5-min Rain = 0
KCR2 032146Z 14008KT 37/15 A2996 RMK A01 T03720152  RH  027%=      5-min Rain = 0
KCR2 032147Z 14006G13KT 37/15 A2996 RMK A01 T03670151  RH  028%=      5-min Rain = 0
KCR2 032148Z 17013KT 37/15 A2995 RMK A01 T03670152  RH  028%=      5-min Rain = 0
KCR2 032149Z 17009KT 37/15 A2996 RMK A01 T03690151  RH  027%=      5-min Rain = 0
KCR2 032150Z 17010KT 37/15 A2996 RMK A01 T03670151  RH  028%=      5-min Rain = 0
KCR2 032151Z 18009KT 37/15 A2996 RMK A01 T03660151  RH  028%=      5-min Rain = 0
KCR2 032152Z 17011KT 37/15 A2995 RMK A01 T03670150  RH  028%=      5-min Rain = 0
KCR2 032153Z 16009KT 37/15 A2995 RMK A01 T03670149  RH  028%=      5-min Rain = 0
KCR2 032154Z 16007KT 37/15 A2995 RMK A01 T03680147  RH  027%=      5-min Rain = 0
KCR2 032155Z 19008KT 37/15 A2995 RMK A01 T03720149  RH  027%=      5-min Rain = 0
KCR2 032156Z 19008KT 38/15 A2995 RMK A01 T03750146  RH  026%=      5-min Rain = 0
KCR2 032157Z 17012KT 37/14 A2995 RMK A01 T03710144  RH  026%=      5-min Rain = 0
KCR2 032158Z 18012KT 37/14 A2995 RMK A01 T03700142  RH  026%=      5-min Rain = 0
KCR2 032159Z 19010KT 37/14 A2995 RMK A01 T03710140  RH  025%=      5-min Rain = 0
KCR2 032200Z 19007KT 37/14 A2995 RMK A01 T03700141  RH  026%=      5-min Rain = 0
KCR2 032201Z 18004KT 37/14 A2995 RMK A01 T03710140  RH  025%=      5-min Rain = 0
KCR2 032202Z 21001KT 37/14 A2995 RMK A01 T03700139  RH  025%=      5-min Rain = 0
KCR2 032203Z 16004KT 37/14 A2995 RMK A01 T03700140  RH  025%=      5-min Rain = 0
KCR2 032204Z 16004KT 37/14 A2995 RMK A01 T03700140  RH  026%=      5-min Rain = 0
KCR2 032205Z 19007G14KT 37/14 A2995 RMK A01 T03690141  RH  026%=      5-min Rain = 0
KCR2 032206Z 15012KT 37/15 A2995 RMK A01 T03720147  RH  026%=      5-min Rain = 0
KCR2 032207Z 17009KT 38/15 A2995 RMK A01 T03760148  RH  026%=      5-min Rain = 0
KCR2 032208Z 16011KT 38/15 A2995 RMK A01 T03790147  RH  025%=      5-min Rain = 0
KCR2 032209Z 16009KT 38/14 A2995 RMK A01 T03770144  RH  025%=      5-min Rain = 0
KCR2 032210Z 16012G17KT 38/15 A2995 RMK A01 T03760151  RH  026%=      5-min Rain = 0
KCR2 032211Z 16016KT 38/15 A2995 RMK A01 T03780152  RH  026%=      5-min Rain = 0
KCR2 032212Z 15012KT 38/15 A2995 RMK A01 T03750150  RH  026%=      5-min Rain = 0
KCR2 032213Z 14009KT 37/15 A2995 RMK A01 T03730151  RH  027%=      5-min Rain = 0
KCR2 032214Z 15008KT 37/15 A2995 RMK A01 T03720151  RH  027%=      5-min Rain = 0
KCR2 032215Z 17010KT 37/15 A2995 RMK A01 T03700153  RH  028%=      5-min Rain = 0
KCR2 032216Z 16017KT 37/15 A2995 RMK A01 T03730152  RH  027%=      5-min Rain = 0
KCR2 032217Z 15014KT 38/15 A2995 RMK A01 T03770152  RH  026%=      5-min Rain = 0
KCR2 032218Z 14015KT 37/15 A2995 RMK A01 T03740151  RH  027%=      5-min Rain = 0
KCR2 032219Z 14013KT 37/15 A2995 RMK A01 T03740151  RH  027%=      5-min Rain = 0
KCR2 032220Z 15012KT 38/15 A2995 RMK A01 T03750152  RH  027%=      5-min Rain = 0
KCR2 032221Z 16011KT 38/15 A2995 RMK A01 T03750150  RH  026%=      5-min Rain = 0
KCR2 032222Z 16011KT 37/15 A2995 RMK A01 T03740149  RH  027%=      5-min Rain = 0
KCR2 032223Z 13008KT 37/15 A2995 RMK A01 T03740149  RH  026%=      5-min Rain = 0
KCR2 032224Z 15004KT 37/15 A2995 RMK A01 T03710148  RH  027%=      5-min Rain = 0
KCR2 032225Z 18005KT 37/15 A2995 RMK A01 T03710149  RH  027%=      5-min Rain = 0
KCR2 032226Z 16007KT 37/15 A2995 RMK A01 T03710147  RH  027%=      5-min Rain = 0
KCR2 032227Z 13009KT 37/15 A2995 RMK A01 T03700147  RH  027%=      5-min Rain = 0
KCR2 032228Z 12009KT 37/15 A2995 RMK A01 T03720146  RH  026%=      5-min Rain = 0
KCR2 032229Z 14008KT 37/15 A2995 RMK A01 T03720146  RH  026%=      5-min Rain = 0
KCR2 032230Z 14010KT 37/15 A2995 RMK A01 T03710146  RH  026%=      5-min Rain = 0
KCR2 032231Z 13010KT 37/15 A2995 RMK A01 T03710146  RH  026%=      5-min Rain = 0
KCR2 032232Z 13012KT 37/15 A2995 RMK A01 T03720145  RH  026%=      5-min Rain = 0
KCR2 032233Z 12013KT 37/14 A2995 RMK A01 T03700143  RH  026%=      5-min Rain = 0
KCR2 032234Z 13012KT 37/14 A2995 RMK A01 T03650142  RH  027%=      5-min Rain = 0
KCR2 032235Z 13009KT 36/14 A2995 RMK A01 T03620142  RH  027%=      5-min Rain = 0
KCR2 032236Z 13008KT 36/14 A2995 RMK A01 T03610142  RH  027%=      5-min Rain = 0
KCR2 032237Z 12010KT 36/14 A2995 RMK A01 T03620143  RH  027%=      5-min Rain = 0
KCR2 032238Z 12009KT 36/14 A2995 RMK A01 T03620142  RH  027%=      5-min Rain = 0
KCR2 032239Z 11009KT 36/14 A2995 RMK A01 T03620142  RH  027%=      5-min Rain = 0
KCR2 032240Z 11010KT 36/14 A2995 RMK A01 T03610142  RH  027%=      5-min Rain = 0
KCR2 032241Z 11009KT 36/14 A2995 RMK A01 T03630140  RH  026%=      5-min Rain = 0
KCR2 032242Z 10013KT 36/14 A2995 RMK A01 T03630139  RH  026%=      5-min Rain = 0
KCR2 032243Z 12011KT 36/14 A2995 RMK A01 T03630138  RH  026%=      5-min Rain = 0
KCR2 032244Z 14008KT 36/14 A2995 RMK A01 T03640139  RH  026%=      5-min Rain = 0
KCR2 032245Z 16008KT 37/14 A2995 RMK A01 T03680138  RH  025%=      5-min Rain = 0
KCR2 032246Z 17007G13KT 37/14 A2995 RMK A01 T03700141  RH  026%=      5-min Rain = 0
KCR2 032247Z 16013KT 37/14 A2994 RMK A01 T03730142  RH  025%=      5-min Rain = 0
KCR2 032248Z 15010KT 37/14 A2995 RMK A01 T03730140  RH  025%=      5-min Rain = 0
KCR2 032249Z 14010KT 37/14 A2994 RMK A01 T03740138  RH  025%=      5-min Rain = 0
KCR2 032250Z 17012KT 38/14 A2994 RMK A01 T03750137  RH  024%=      5-min Rain = 0
KCR2 032251Z 16011KT 37/14 A2994 RMK A01 T03730136  RH  024%=      5-min Rain = 0
KCR2 032252Z 18012KT 37/14 A2994 RMK A01 T03710136  RH  025%=      5-min Rain = 0
KCR2 032253Z 17010KT 37/14 A2994 RMK A01 T03710136  RH  025%=      5-min Rain = 0
KCR2 032254Z 17010KT 37/14 A2994 RMK A01 T03700137  RH  025%=      5-min Rain = 0
KCR2 032255Z 17009KT 37/14 A2994 RMK A01 T03700137  RH  025%=      5-min Rain = 0
KCR2 032256Z 15009KT 37/14 A2994 RMK A01 T03700138  RH  025%=      5-min Rain = 0
KCR2 032257Z 17008KT 37/14 A2994 RMK A01 T03720140  RH  025%=      5-min Rain = 0
KCR2 032258Z 18004KT 37/14 A2994 RMK A01 T03720139  RH  025%=      5-min Rain = 0
KCR2 032259Z 16010KT 37/14 A2994 RMK A01 T03710137  RH  025%=      5-min Rain = 0
KCR2 032300Z 15011KT 37/14 A2994 RMK A01 T03730135  RH  024%=      5-min Rain = 0
KCR2 032301Z 15009KT 37/14 A2994 RMK A01 T03720135  RH  024%=      5-min Rain = 0
KCR2 032302Z 15007KT 37/13 A2994 RMK A01 T03710134  RH  024%=      5-min Rain = 0
KCR2 032303Z 17009KT 37/14 A2994 RMK A01 T03680136  RH  025%=      5-min Rain = 0
KCR2 032304Z 18005KT 37/14 A2994 RMK A01 T03660137  RH  026%=      5-min Rain = 0
KCR2 032305Z 17007KT 37/14 A2994 RMK A01 T03650137  RH  026%=      5-min Rain = 0
KCR2 032306Z 16011KT 37/14 A2994 RMK A01 T03660137  RH  025%=      5-min Rain = 0
KCR2 032307Z 16012KT 37/13 A2994 RMK A01 T03700134  RH  025%=      5-min Rain = 0
KCR2 032308Z 16014KT 37/14 A2994 RMK A01 T03710135  RH  024%=      5-min Rain = 0
KCR2 032309Z 17012KT 37/14 A2994 RMK A01 T03710136  RH  025%=      5-min Rain = 0
KCR2 032310Z 17011KT 37/14 A2994 RMK A01 T03710138  RH  025%=      5-min Rain = 0
KCR2 032311Z 18011KT 37/14 A2994 RMK A01 T03710136  RH  025%=      5-min Rain = 0
KCR2 032312Z 16010KT 37/14 A2994 RMK A01 T03710135  RH  024%=      5-min Rain = 0
KCR2 032313Z 14010KT 37/13 A2994 RMK A01 T03720134  RH  024%=      5-min Rain = 0
KCR2 032314Z 16008KT 37/14 A2994 RMK A01 T03720136  RH  025%=      5-min Rain = 0
KCR2 032315Z 18008KT 37/14 A2994 RMK A01 T03720137  RH  025%=      5-min Rain = 0
KCR2 032316Z 18009KT 37/14 A2994 RMK A01 T03720137  RH  025%=      5-min Rain = 0
KCR2 032317Z 19005KT 37/14 A2994 RMK A01 T03700136  RH  025%=      5-min Rain = 0
KCR2 032318Z 22005KT 37/14 A2994 RMK A01 T03690136  RH  025%=      5-min Rain = 0
KCR2 032319Z 18005KT 37/14 A2994 RMK A01 T03680136  RH  025%=      5-min Rain = 0
KCR2 032320Z 17004KT 37/14 A2993 RMK A01 T03690136  RH  025%=      5-min Rain = 0
KCR2 032321Z 19005KT 37/14 A2993 RMK A01 T03690137  RH  025%=      5-min Rain = 0
KCR2 032322Z 15005G10KT 37/14 A2993 RMK A01 T03710138  RH  025%=      5-min Rain = 0
KCR2 032323Z 13012KT 37/14 A2993 RMK A01 T03730136  RH  024%=      5-min Rain = 0
KCR2 032324Z 13009KT 37/14 A2993 RMK A01 T03740136  RH  024%=      5-min Rain = 0
KCR2 032325Z 13010KT 38/14 A2993 RMK A01 T03760136  RH  024%=      5-min Rain = 0
KCR2 032326Z 10010KT 37/13 A2993 RMK A01 T03740133  RH  024%=      5-min Rain = 0
KCR2 032327Z 11009KT 37/13 A2993 RMK A01 T03720131  RH  024%=      5-min Rain = 0
KCR2 032328Z 13009KT 37/13 A2993 RMK A01 T03710131  RH  024%=      5-min Rain = 0
KCR2 032329Z 14012KT 37/13 A2993 RMK A01 T03710131  RH  024%=      5-min Rain = 0
KCR2 032330Z 15012KT 37/13 A2993 RMK A01 T03730131  RH  024%=      5-min Rain = 0
KCR2 032331Z 15010KT 37/13 A2993 RMK A01 T03720131  RH  024%=      5-min Rain = 0
KCR2 032332Z 16012KT 37/13 A2993 RMK A01 T03730130  RH  023%=      5-min Rain = 0
KCR2 032333Z 16011KT 37/13 A2993 RMK A01 T03730130  RH  023%=      5-min Rain = 0
KCR2 032334Z 15012KT 37/13 A2993 RMK A01 T03730131  RH  024%=      5-min Rain = 0
KCR2 032335Z 15011KT 37/13 A2993 RMK A01 T03740130  RH  023%=      5-min Rain = 0
KCR2 032336Z 14008KT 37/13 A2993 RMK A01 T03730131  RH  024%=      5-min Rain = 0
KCR2 032337Z 14009G16KT 37/13 A2993 RMK A01 T03740132  RH  024%=      5-min Rain = 0
KCR2 032338Z 15013KT 38/13 A2993 RMK A01 T03750134  RH  024%=      5-min Rain = 0
KCR2 032339Z 16015KT 38/13 A2993 RMK A01 T03760134  RH  024%=      5-min Rain = 0
KCR2 032340Z 17012KT 37/13 A2993 RMK A01 T03720133  RH  024%=      5-min Rain = 0
KCR2 032341Z 17013KT 37/13 A2993 RMK A01 T03700133  RH  024%=      5-min Rain = 0
KCR2 032342Z 16013KT 37/13 A2993 RMK A01 T03710134  RH  024%=      5-min Rain = 0
KCR2 032343Z 16013KT 37/13 A2993 RMK A01 T03720133  RH  024%=      5-min Rain = 0
KCR2 032344Z 16015KT 37/13 A2993 RMK A01 T03710131  RH  024%=      5-min Rain = 0
KCR2 032345Z 17013KT 37/13 A2993 RMK A01 T03710129  RH  024%=      5-min Rain = 0
KCR2 032346Z 17010KT 37/13 A2993 RMK A01 T03700129  RH  024%=      5-min Rain = 0
KCR2 032347Z 17009KT 37/13 A2993 RMK A01 T03700129  RH  024%=      5-min Rain = 0
KCR2 032348Z 15010KT 37/13 A2993 RMK A01 T03700130  RH  024%=      5-min Rain = 0
KCR2 032349Z 13007KT 37/13 A2993 RMK A01 T03700129  RH  024%=      5-min Rain = 0
KCR2 032350Z 15006KT 37/13 A2993 RMK A01 T03670130  RH  024%=      5-min Rain = 0
KCR2 032351Z 18008KT 37/13 A2993 RMK A01 T03680131  RH  024%=      5-min Rain = 0
KCR2 032352Z 18007KT 37/13 A2993 RMK A01 T03700132  RH  024%=      5-min Rain = 0
KCR2 032353Z 16007KT 37/13 A2993 RMK A01 T03710132  RH  024%=      5-min Rain = 0
KCR2 032354Z 14009KT 37/13 A2993 RMK A01 T03730129  RH  023%=      5-min Rain = 0
KCR2 032355Z 13011KT 37/13 A2993 RMK A01 T03730128  RH  023%=      5-min Rain = 0
KCR2 032356Z 13010KT 37/13 A2993 RMK A01 T03720127  RH  023%=      5-min Rain = 0
KCR2 032357Z 15008KT 37/13 A2993 RMK A01 T03700126  RH  023%=      5-min Rain = 0
KCR2 032358Z 16009KT 37/13 A2993 RMK A01 T03700125  RH  023%=      5-min Rain = 0
KCR2 032359Z 11008KT 37/13 A2993 RMK A01 T03700125  RH  023%=      5-min Rain = 0
KCR2 040000Z 11006KT 37/12 A2992 RMK A01 T03680123  RH  023%=      5-min Rain = 0
KCR2 040001Z 11007KT 37/12 A2992 RMK A01 T03670123  RH  023%=      5-min Rain = 0
KCR2 040002Z 16009G14KT 37/12 A2993 RMK A01 T03680124  RH  023%=      5-min Rain = 0
KCR2 040003Z 15014KT 37/13 A2992 RMK A01 T03690125  RH  023%=      5-min Rain = 0
KCR2 040004Z 15010KT 37/13 A2992 RMK A01 T03690125  RH  023%=      5-min Rain = 0
KCR2 040005Z 16013KT 37/13 A2993 RMK A01 T03680126  RH  024%=      5-min Rain = 0
KCR2 040006Z 17012KT 37/13 A2993 RMK A01 T03670126  RH  024%=      5-min Rain = 0
KCR2 040007Z 16010KT 37/13 A2993 RMK A01 T03660126  RH  024%=      5-min Rain = 0
KCR2 040008Z 16009KT 37/13 A2993 RMK A01 T03670126  RH  024%=      5-min Rain = 0
KCR2 040009Z 17010KT 37/13 A2993 RMK A01 T03680125  RH  023%=      5-min Rain = 0
KCR2 040010Z 16010KT 37/13 A2993 RMK A01 T03690125  RH  023%=      5-min Rain = 0
KCR2 040011Z 15009KT 37/13 A2993 RMK A01 T03690125  RH  023%=      5-min Rain = 0
KCR2 040012Z 13007KT 37/13 A2993 RMK A01 T03700125  RH  023%=      5-min Rain = 0
KCR2 040013Z 12010KT 37/12 A2993 RMK A01 T03710124  RH  023%=      5-min Rain = 0
KCR2 040014Z 14009KT 37/12 A2993 RMK A01 T03700123  RH  023%=      5-min Rain = 0
KCR2 040015Z 15011KT 37/12 A2993 RMK A01 T03690124  RH  023%=      5-min Rain = 0
KCR2 040016Z 14011KT 37/12 A2993 RMK A01 T03680123  RH  023%=      5-min Rain = 0
KCR2 040017Z 12011KT 37/12 A2993 RMK A01 T03670123  RH  023%=      5-min Rain = 0
KCR2 040018Z 13009KT 37/12 A2993 RMK A01 T03660124  RH  023%=      5-min Rain = 0
KCR2 040019Z 14011KT 37/13 A2993 RMK A01 T03670125  RH  023%=      5-min Rain = 0
KCR2 040020Z 15012KT 37/12 A2993 RMK A01 T03670124  RH  023%=      5-min Rain = 0
KCR2 040021Z 15010KT 37/12 A2993 RMK A01 T03670124  RH  023%=      5-min Rain = 0
KCR2 040022Z 16012KT 37/12 A2993 RMK A01 T03680124  RH  023%=      5-min Rain = 0
KCR2 040023Z 15011KT 37/12 A2993 RMK A01 T03690124  RH  023%=      5-min Rain = 0
KCR2 040024Z 17011KT 37/12 A2993 RMK A01 T03670122  RH  023%=      5-min Rain = 0
KCR2 040025Z 17010KT 37/12 A2993 RMK A01 T03660121  RH  023%=      5-min Rain = 0
KCR2 040026Z 16010KT 37/12 A2993 RMK A01 T03650121  RH  023%=      5-min Rain = 0
KCR2 040027Z 16010KT 37/12 A2993 RMK A01 T03650121  RH  023%=      5-min Rain = 0
KCR2 040028Z 16010KT 37/12 A2993 RMK A01 T03650122  RH  023%=      5-min Rain = 0
KCR2 040029Z 15008KT 37/12 A2993 RMK A01 T03650122  RH  023%=      5-min Rain = 0
KCR2 040030Z 16009KT 37/12 A2993 RMK A01 T03650122  RH  023%=      5-min Rain = 0
KCR2 040031Z 15008KT 36/12 A2993 RMK A01 T03640121  RH  023%=      5-min Rain = 0
KCR2 040032Z 15008KT 37/12 A2993 RMK A01 T03650121  RH  023%=      5-min Rain = 0
KCR2 040033Z 15010KT 37/12 A2993 RMK A01 T03650122  RH  023%=      5-min Rain = 0
KCR2 040034Z 16009KT 37/12 A2993 RMK A01 T03650123  RH  023%=      5-min Rain = 0
KCR2 040035Z 16010KT 37/12 A2993 RMK A01 T03650124  RH  024%=      5-min Rain = 0
KCR2 040036Z 14010KT 37/12 A2993 RMK A01 T03660123  RH  023%=      5-min Rain = 0
KCR2 040037Z 14010KT 37/12 A2993 RMK A01 T03650123  RH  023%=      5-min Rain = 0
KCR2 040038Z 14010KT 36/12 A2993 RMK A01 T03640124  RH  024%=      5-min Rain = 0
KCR2 040039Z 15009KT 36/13 A2993 RMK A01 T03640125  RH  024%=      5-min Rain = 0
KCR2 040040Z 16011KT 36/13 A2993 RMK A01 T03640127  RH  024%=      5-min Rain = 0
KCR2 040041Z 16012KT 36/13 A2993 RMK A01 T03640125  RH  024%=      5-min Rain = 0
KCR2 040042Z 16012KT 36/12 A2993 RMK A01 T03640124  RH  024%=      5-min Rain = 0
KCR2 040043Z 17010KT 36/12 A2993 RMK A01 T03640124  RH  024%=      5-min Rain = 0
KCR2 040044Z 18010KT 36/13 A2993 RMK A01 T03640125  RH  024%=      5-min Rain = 0
KCR2 040045Z 17010KT 36/13 A2993 RMK A01 T03640126  RH  024%=      5-min Rain = 0
KCR2 040046Z 16012KT 36/13 A2993 RMK A01 T03640126  RH  024%=      5-min Rain = 0
KCR2 040047Z 16009KT 36/12 A2993 RMK A01 T03630124  RH  024%=      5-min Rain = 0
KCR2 040048Z 15007KT 36/13 A2993 RMK A01 T03620125  RH  024%=      5-min Rain = 0
KCR2 040049Z 16009KT 36/13 A2993 RMK A01 T03620125  RH  024%=      5-min Rain = 0
KCR2 040050Z 15012KT 36/12 A2993 RMK A01 T03620124  RH  024%=      5-min Rain = 0
KCR2 040051Z 16010KT 36/13 A2993 RMK A01 T03630125  RH  024%=      5-min Rain = 0
KCR2 040052Z 15008KT 36/13 A2993 RMK A01 T03620126  RH  024%=      5-min Rain = 0
KCR2 040053Z 16012KT 36/13 A2993 RMK A01 T03610125  RH  024%=      5-min Rain = 0
KCR2 040054Z 17011KT 36/12 A2993 RMK A01 T03610123  RH  024%=      5-min Rain = 0
KCR2 040055Z 17011KT 36/12 A2993 RMK A01 T03600122  RH  024%=      5-min Rain = 0
KCR2 040056Z 18009KT 36/12 A2993 RMK A01 T03590122  RH  024%=      5-min Rain = 0
KCR2 040057Z 18009KT 36/12 A2993 RMK A01 T03580122  RH  024%=      5-min Rain = 0
KCR2 040058Z 18009KT 36/12 A2993 RMK A01 T03590122  RH  024%=      5-min Rain = 0
KCR2 040059Z 17009KT 36/12 A2993 RMK A01 T03590122  RH  024%=      5-min Rain = 0
KCR2 040100Z 15010KT 36/12 A2993 RMK A01 T03590122  RH  024%=      5-min Rain = 0
KCR2 040101Z 16013KT 36/12 A2994 RMK A01 T03590122  RH  024%=      5-min Rain = 0
KCR2 040102Z 15011KT 36/12 A2994 RMK A01 T03590122  RH  024%=      5-min Rain = 0
KCR2 040103Z 15011KT 36/12 A2994 RMK A01 T03580122  RH  024%=      5-min Rain = 0
KCR2 040104Z 16011KT 36/12 A2994 RMK A01 T03570124  RH  025%=      5-min Rain = 0
KCR2 040105Z 16012KT 36/13 A2994 RMK A01 T03570127  RH  025%=      5-min Rain = 0
KCR2 040106Z 16010KT 36/13 A2994 RMK A01 T03560126  RH  025%=      5-min Rain = 0
KCR2 040107Z 17011KT 36/13 A2994 RMK A01 T03550127  RH  025%=      5-min Rain = 0
KCR2 040108Z 15013KT 36/13 A2994 RMK A01 T03550127  RH  025%=      5-min Rain = 0
KCR2 040109Z 13011KT 36/13 A2994 RMK A01 T03550127  RH  025%=      5-min Rain = 0
KCR2 040110Z 13012KT 36/13 A2994 RMK A01 T03550127  RH  025%=      5-min Rain = 0
KCR2 040111Z 14010KT 36/13 A2994 RMK A01 T03550127  RH  025%=      5-min Rain = 0
KCR2 040112Z 14010KT 36/13 A2994 RMK A01 T03550127  RH  025%=      5-min Rain = 0
KCR2 040113Z 14011KT 36/13 A2994 RMK A01 T03550126  RH  025%=      5-min Rain = 0
KCR2 040114Z 15009KT 36/13 A2994 RMK A01 T03550126  RH  025%=      5-min Rain = 0
KCR2 040115Z 15009KT 36/13 A2994 RMK A01 T03550127  RH  025%=      5-min Rain = 0
KCR2 040116Z 15011KT 36/13 A2994 RMK A01 T03560129  RH  025%=      5-min Rain = 0
KCR2 040117Z 15012KT 36/13 A2994 RMK A01 T03560130  RH  026%=      5-min Rain = 0
KCR2 040118Z 15012KT 36/13 A2994 RMK A01 T03550130  RH  026%=      5-min Rain = 0
KCR2 040119Z 16010KT 35/13 A2994 RMK A01 T03540130  RH  026%=      5-min Rain = 0
KCR2 040120Z 15012KT 35/13 A2994 RMK A01 T03530130  RH  026%=      5-min Rain = 0
KCR2 040121Z 15012KT 35/13 A2994 RMK A01 T03530131  RH  026%=      5-min Rain = 0
KCR2 040122Z 15012KT 35/13 A2994 RMK A01 T03520131  RH  026%=      5-min Rain = 0
KCR2 040123Z 15010KT 35/13 A2994 RMK A01 T03520131  RH  027%=      5-min Rain = 0
KCR2 040124Z 15010KT 35/13 A2994 RMK A01 T03520131  RH  027%=      5-min Rain = 0
KCR2 040125Z 15012KT 35/13 A2994 RMK A01 T03520131  RH  027%=      5-min Rain = 0
KCR2 040126Z 15011KT 35/13 A2994 RMK A01 T03510130  RH  026%=      5-min Rain = 0
KCR2 040127Z 16010KT 35/13 A2994 RMK A01 T03510130  RH  026%=      5-min Rain = 0
KCR2 040128Z 15009KT 35/13 A2995 RMK A01 T03500130  RH  026%=      5-min Rain = 0
KCR2 040129Z 15008KT 35/13 A2995 RMK A01 T03500130  RH  027%=      5-min Rain = 0
KCR2 040130Z 14008KT 35/13 A2995 RMK A01 T03500130  RH  027%=      5-min Rain = 0
KCR2 040131Z 15010KT 35/13 A2995 RMK A01 T03490128  RH  026%=      5-min Rain = 0
KCR2 040132Z 15010KT 35/13 A2995 RMK A01 T03490126  RH  026%=      5-min Rain = 0
KCR2 040133Z 15010KT 35/13 A2995 RMK A01 T03490126  RH  026%=      5-min Rain = 0
KCR2 040134Z 14010KT 35/13 A2995 RMK A01 T03490125  RH  026%=      5-min Rain = 0
KCR2 040135Z 15008KT 35/13 A2995 RMK A01 T03490125  RH  026%=      5-min Rain = 0
KCR2 040136Z 14009KT 35/13 A2995 RMK A01 T03480125  RH  026%=      5-min Rain = 0
KCR2 040137Z 14011KT 35/13 A2995 RMK A01 T03480125  RH  026%=      5-min Rain = 0
KCR2 040138Z 15011KT 35/13 A2995 RMK A01 T03480126  RH  026%=      5-min Rain = 0
KCR2 040139Z 15011KT 35/13 A2995 RMK A01 T03480126  RH  026%=      5-min Rain = 0
KCR2 040140Z 15009KT 35/13 A2995 RMK A01 T03480127  RH  026%=      5-min Rain = 0
KCR2 040141Z 15010KT 35/13 A2995 RMK A01 T03470127  RH  026%=      5-min Rain = 0
KCR2 040142Z 15009KT 35/13 A2995 RMK A01 T03470127  RH  027%=      5-min Rain = 0
KCR2 040143Z 15011KT 35/13 A2995 RMK A01 T03470127  RH  027%=      5-min Rain = 0
KCR2 040144Z 15010KT 35/13 A2995 RMK A01 T03470127  RH  027%=      5-min Rain = 0
KCR2 040145Z 15010KT 35/13 A2995 RMK A01 T03470127  RH  027%=      5-min Rain = 0
KCR2 040146Z 15008KT 35/13 A2995 RMK A01 T03460127  RH  027%=      5-min Rain = 0
KCR2 040147Z 15010KT 35/13 A2995 RMK A01 T03460128  RH  027%=      5-min Rain = 0
KCR2 040148Z 15010KT 35/13 A2995 RMK A01 T03460127  RH  027%=      5-min Rain = 0
KCR2 040149Z 14009KT 35/13 A2995 RMK A01 T03460127  RH  027%=      5-min Rain = 0
KCR2 040150Z 14008KT 35/13 A2995 RMK A01 T03450127  RH  027%=      5-min Rain = 0
KCR2 040151Z 14009KT 35/13 A2995 RMK A01 T03450127  RH  027%=      5-min Rain = 0
KCR2 040152Z 15009KT 34/13 A2995 RMK A01 T03440127  RH  027%=      5-min Rain = 0
KCR2 040153Z 15008KT 34/13 A2995 RMK A01 T03440127  RH  027%=      5-min Rain = 0
KCR2 040154Z 15007KT 34/13 A2995 RMK A01 T03430126  RH  027%=      5-min Rain = 0
KCR2 040155Z 14007KT 34/13 A2995 RMK A01 T03430126  RH  027%=      5-min Rain = 0
KCR2 040156Z 14011KT 34/13 A2995 RMK A01 T03420126  RH  027%=      5-min Rain = 0
KCR2 040157Z 14009KT 34/13 A2995 RMK A01 T03420125  RH  027%=      5-min Rain = 0
KCR2 040158Z 15008KT 34/12 A2996 RMK A01 T03420124  RH  027%=      5-min Rain = 0
KCR2 040159Z 15008KT 34/13 A2996 RMK A01 T03420125  RH  027%=      5-min Rain = 0
KCR2 040200Z 15009KT 34/13 A2996 RMK A01 T03420125  RH  027%=      5-min Rain = 0
KCR2 040201Z 15008KT 34/12 A2996 RMK A01 T03420124  RH  027%=      5-min Rain = 0
KCR2 040202Z 14009KT 34/13 A2996 RMK A01 T03420125  RH  027%=      5-min Rain = 0
KCR2 040203Z 15008KT 34/12 A2996 RMK A01 T03420124  RH  027%=      5-min Rain = 0
KCR2 040204Z 15008KT 34/12 A2996 RMK A01 T03410124  RH  027%=      5-min Rain = 0
KCR2 040205Z 15009KT 34/12 A2996 RMK A01 T03410123  RH  027%=      5-min Rain = 0
KCR2 040206Z 15009KT 34/12 A2996 RMK A01 T03400123  RH  027%=      5-min Rain = 0
KCR2 040207Z 15008KT 34/12 A2996 RMK A01 T03400123  RH  027%=      5-min Rain = 0
KCR2 040208Z 15008KT 34/12 A2996 RMK A01 T03400123  RH  027%=      5-min Rain = 0
KCR2 040209Z 15008KT 34/12 A2996 RMK A01 T03390123  RH  027%=      5-min Rain = 0
KCR2 040210Z 15009KT 34/12 A2996 RMK A01 T03400123  RH  027%=      5-min Rain = 0
KCR2 040211Z 15009KT 34/12 A2996 RMK A01 T03390123  RH  027%=      5-min Rain = 0
KCR2 040212Z 15009KT 34/12 A2996 RMK A01 T03400123  RH  027%=      5-min Rain = 0
KCR2 040213Z 15009KT 34/12 A2996 RMK A01 T03400123  RH  027%=      5-min Rain = 0
KCR2 040214Z 15009KT 34/12 A2996 RMK A01 T03390124  RH  027%=      5-min Rain = 0
KCR2 040215Z 15011KT 34/12 A2996 RMK A01 T03390124  RH  027%=      5-min Rain = 0
KCR2 040216Z 15009KT 34/12 A2996 RMK A01 T03390123  RH  027%=      5-min Rain = 0
KCR2 040217Z 15011KT 34/12 A2996 RMK A01 T03390123  RH  027%=      5-min Rain = 0
KCR2 040218Z 15010KT 34/12 A2996 RMK A01 T03390124  RH  027%=      5-min Rain = 0
KCR2 040219Z 15010KT 34/12 A2996 RMK A01 T03390124  RH  027%=      5-min Rain = 0
KCR2 040220Z 15010KT 34/12 A2996 RMK A01 T03390124  RH  027%=      5-min Rain = 0
KCR2 040221Z 15009KT 34/12 A2996 RMK A01 T03390124  RH  027%=      5-min Rain = 0
KCR2 040222Z 15009KT 34/12 A2996 RMK A01 T03380123  RH  027%=      5-min Rain = 0
KCR2 040223Z 16009KT 34/12 A2996 RMK A01 T03370123  RH  027%=      5-min Rain = 0
KCR2 040224Z 15008KT 34/12 A2996 RMK A01 T03370124  RH  027%=      5-min Rain = 0
KCR2 040225Z 15009KT 34/12 A2997 RMK A01 T03360123  RH  027%=      5-min Rain = 0
KCR2 040226Z 15009KT 34/12 A2997 RMK A01 T03360123  RH  027%=      5-min Rain = 0
KCR2 040227Z 15008KT 34/12 A2997 RMK A01 T03360123  RH  028%=      5-min Rain = 0
KCR2 040228Z 16009KT 34/12 A2997 RMK A01 T03360123  RH  028%=      5-min Rain = 0
KCR2 040229Z 15007KT 34/12 A2997 RMK A01 T03360123  RH  028%=      5-min Rain = 0
KCR2 040230Z 16008KT 34/12 A2997 RMK A01 T03350123  RH  028%=      5-min Rain = 0
KCR2 040231Z 16008KT 34/12 A2997 RMK A01 T03350123  RH  028%=      5-min Rain = 0
KCR2 040232Z 15008KT 34/12 A2997 RMK A01 T03350123  RH  028%=      5-min Rain = 0
KCR2 040233Z 15009KT 33/12 A2997 RMK A01 T03340122  RH  028%=      5-min Rain = 0
KCR2 040234Z 15008KT 33/12 A2997 RMK A01 T03340122  RH  028%=      5-min Rain = 0
KCR2 040235Z 15009KT 33/12 A2997 RMK A01 T03340122  RH  028%=      5-min Rain = 0
KCR2 040236Z 15009KT 33/12 A2997 RMK A01 T03330121  RH  028%=      5-min Rain = 0
KCR2 040237Z 15009KT 33/12 A2997 RMK A01 T03330121  RH  028%=      5-min Rain = 0
KCR2 040238Z 15011KT 33/12 A2997 RMK A01 T03340121  RH  027%=      5-min Rain = 0
KCR2 040239Z 15009KT 33/12 A2997 RMK A01 T03340121  RH  027%=      5-min Rain = 0
KCR2 040240Z 15009KT 33/12 A2997 RMK A01 T03330121  RH  027%=      5-min Rain = 0
KCR2 040241Z 15008KT 33/12 A2997 RMK A01 T03330121  RH  027%=      5-min Rain = 0
KCR2 040242Z 15009KT 33/12 A2997 RMK A01 T03330121  RH  028%=      5-min Rain = 0
KCR2 040243Z 15008KT 33/12 A2997 RMK A01 T03320121  RH  028%=      5-min Rain = 0
KCR2 040244Z 15008KT 33/12 A2997 RMK A01 T03310120  RH  028%=      5-min Rain = 0
KCR2 040245Z 15009KT 33/12 A2997 RMK A01 T03310120  RH  028%=      5-min Rain = 0
KCR2 040246Z 15008KT 33/12 A2997 RMK A01 T03310120  RH  028%=      5-min Rain = 0
KCR2 040247Z 15009KT 33/12 A2997 RMK A01 T03300120  RH  028%=      5-min Rain = 0
KCR2 040248Z 15009KT 33/12 A2998 RMK A01 T03300119  RH  028%=      5-min Rain = 0
KCR2 040249Z 15009KT 33/12 A2998 RMK A01 T03300120  RH  028%=      5-min Rain = 0
KCR2 040250Z 15010KT 33/12 A2998 RMK A01 T03300119  RH  028%=      5-min Rain = 0
KCR2 040251Z 15009KT 33/12 A2998 RMK A01 T03300119  RH  028%=      5-min Rain = 0
KCR2 040252Z 15009KT 33/12 A2998 RMK A01 T03300118  RH  028%=      5-min Rain = 0
KCR2 040253Z 15009KT 33/12 A2998 RMK A01 T03300118  RH  028%=      5-min Rain = 0
KCR2 040254Z 15009KT 33/12 A2998 RMK A01 T03290118  RH  028%=      5-min Rain = 0
KCR2 040255Z 15009KT 33/12 A2998 RMK A01 T03300118  RH  028%=      5-min Rain = 0
KCR2 040256Z 15008KT 33/12 A2998 RMK A01 T03290118  RH  028%=      5-min Rain = 0
KCR2 040257Z 15008KT 33/12 A2998 RMK A01 T03290117  RH  028%=      5-min Rain = 0
KCR2 040258Z 15008KT 33/12 A2998 RMK A01 T03280117  RH  028%=      5-min Rain = 0
KCR2 040259Z 15009KT 33/12 A2998 RMK A01 T03280117  RH  028%=      5-min Rain = 0
KCR2 040300Z 15008KT 33/12 A2998 RMK A01 T03280116  RH  028%=      5-min Rain = 0
KCR2 040301Z 16008KT 33/12 A2998 RMK A01 T03270116  RH  027%=      5-min Rain = 0
KCR2 040302Z 15008KT 33/12 A2998 RMK A01 T03270116  RH  028%=      5-min Rain = 0
KCR2 040303Z 15008KT 33/12 A2998 RMK A01 T03270116  RH  028%=      5-min Rain = 0
KCR2 040304Z 15008KT 33/12 A2998 RMK A01 T03260115  RH  028%=      5-min Rain = 0
KCR2 040305Z 15010KT 33/12 A2998 RMK A01 T03260115  RH  027%=      5-min Rain = 0
KCR2 040306Z 15009KT 33/11 A2999 RMK A01 T03260114  RH  027%=      5-min Rain = 0
KCR2 040307Z 15010KT 33/11 A2999 RMK A01 T03260113  RH  027%=      5-min Rain = 0
KCR2 040308Z 15009KT 33/11 A2999 RMK A01 T03260113  RH  027%=      5-min Rain = 0
KCR2 040309Z 15010KT 33/11 A2999 RMK A01 T03260112  RH  027%=      5-min Rain = 0
KCR2 040310Z 15010KT 33/11 A2999 RMK A01 T03260111  RH  027%=      5-min Rain = 0
KCR2 040311Z 15010KT 33/11 A2999 RMK A01 T03260111  RH  027%=      5-min Rain = 0
KCR2 040312Z 15010KT 33/11 A2999 RMK A01 T03260110  RH  027%=      5-min Rain = 0
KCR2 040313Z 15009KT 33/11 A2999 RMK A01 T03250109  RH  027%=      5-min Rain = 0
KCR2 040314Z 15010KT 33/11 A2999 RMK A01 T03250109  RH  027%=      5-min Rain = 0
KCR2 040315Z 15011KT 33/11 A2999 RMK A01 T03250107  RH  026%=      5-min Rain = 0
KCR2 040316Z 15011KT 33/11 A2999 RMK A01 T03250107  RH  026%=      5-min Rain = 0
KCR2 040317Z 15009KT 33/11 A2999 RMK A01 T03250106  RH  026%=      5-min Rain = 0
KCR2 040318Z 16010KT 33/11 A2999 RMK A01 T03250106  RH  026%=      5-min Rain = 0
KCR2 040319Z 15009KT 32/10 A2999 RMK A01 T03240104  RH  026%=      5-min Rain = 0
KCR2 040320Z 16009KT 32/10 A2999 RMK A01 T03240103  RH  026%=      5-min Rain = 0
KCR2 040321Z 16009KT 32/10 A2999 RMK A01 T03240103  RH  026%=      5-min Rain = 0
KCR2 040322Z 15010KT 32/10 A2999 RMK A01 T03240103  RH  026%=      5-min Rain = 0
KCR2 040323Z 15010KT 32/10 A2999 RMK A01 T03240102  RH  026%=      5-min Rain = 0
KCR2 040324Z 16009KT 32/10 A2999 RMK A01 T03240101  RH  025%=      5-min Rain = 0
KCR2 040325Z 16010KT 32/10 A2999 RMK A01 T03240101  RH  025%=      5-min Rain = 0
KCR2 040326Z 15009KT 32/10 A2999 RMK A01 T03240101  RH  025%=      5-min Rain = 0
KCR2 040327Z 16010KT 32/10 A2999 RMK A01 T03240101  RH  025%=      5-min Rain = 0
KCR2 040328Z 16008KT 32/10 A2999 RMK A01 T03240101  RH  025%=      5-min Rain = 0
KCR2 040329Z 16009KT 32/10 A2999 RMK A01 T03230101  RH  025%=      5-min Rain = 0
KCR2 040330Z 16009KT 32/10 A2999 RMK A01 T03230100  RH  025%=      5-min Rain = 0
KCR2 040331Z 16008KT 32/10 A2999 RMK A01 T03230100  RH  025%=      5-min Rain = 0
KCR2 040332Z 16009KT 32/10 A2999 RMK A01 T03230100  RH  025%=      5-min Rain = 0
KCR2 040333Z 16011KT 32/10 A2999 RMK A01 T03220100  RH  026%=      5-min Rain = 0
KCR2 040334Z 16011KT 32/10 A2999 RMK A01 T03230100  RH  025%=      5-min Rain = 0
KCR2 040335Z 16009KT 32/10 A2999 RMK A01 T03230100  RH  025%=      5-min Rain = 0
KCR2 040336Z 16009KT 32/10 A2999 RMK A01 T03230100  RH  025%=      5-min Rain = 0
KCR2 040337Z 16010KT 32/10 A30 RMK A01 T03220101  RH  026%=      5-min Rain = 0
KCR2 040338Z 16009KT 32/10 A30 RMK A01 T03220101  RH  026%=      5-min Rain = 0
KCR2 040339Z 16009KT 32/10 A30 RMK A01 T03220101  RH  026%=      5-min Rain = 0
KCR2 040340Z 16009KT 32/10 A30 RMK A01 T03220100  RH  026%=      5-min Rain = 0
KCR2 040341Z 16010KT 32/10 A30 RMK A01 T03220100  RH  026%=      5-min Rain = 0
KCR2 040342Z 16010KT 32/10 A30 RMK A01 T03220101  RH  026%=      5-min Rain = 0
KCR2 040343Z 17011KT 32/10 A30 RMK A01 T03220100  RH  026%=      5-min Rain = 0
KCR2 040344Z 17010KT 32/10 A30 RMK A01 T03230101  RH  026%=      5-min Rain = 0
KCR2 040345Z 17009KT 32/10 A30 RMK A01 T03220101  RH  026%=      5-min Rain = 0
KCR2 040346Z 17009KT 32/10 A30 RMK A01 T03220101  RH  026%=      5-min Rain = 0
KCR2 040347Z 17009KT 32/10 A30 RMK A01 T03220102  RH  026%=      5-min Rain = 0
KCR2 040348Z 17010KT 32/10 A30 RMK A01 T03210102  RH  026%=      5-min Rain = 0
KCR2 040349Z 17008KT 32/10 A30 RMK A01 T03210102  RH  026%=      5-min Rain = 0
KCR2 040350Z 17009KT 32/10 A30 RMK A01 T03200102  RH  026%=      5-min Rain = 0
KCR2 040351Z 17009KT 32/10 A30 RMK A01 T03200102  RH  026%=      5-min Rain = 0
KCR2 040352Z 17008KT 32/10 A30 RMK A01 T03200103  RH  026%=      5-min Rain = 0
KCR2 040353Z 17008KT 32/10 A30 RMK A01 T03190103  RH  026%=      5-min Rain = 0
KCR2 040354Z 17009KT 32/10 A3001 RMK A01 T03190103  RH  026%=      5-min Rain = 0
KCR2 040355Z 17008KT 32/10 A3001 RMK A01 T03180103  RH  027%=      5-min Rain = 0
KCR2 040356Z 17008KT 32/10 A3001 RMK A01 T03180102  RH  027%=      5-min Rain = 0
KCR2 040357Z 18009KT 32/10 A3001 RMK A01 T03180103  RH  027%=      5-min Rain = 0
KCR2 040358Z 18008KT 32/10 A3001 RMK A01 T03170103  RH  027%=      5-min Rain = 0
KCR2 040359Z 18009KT 32/10 A3001 RMK A01 T03160103  RH  027%=      5-min Rain = 0
KCR2 040400Z 18009KT 32/10 A3001 RMK A01 T03160103  RH  027%=      5-min Rain = 0
KCR2 040401Z 18009KT 32/10 A3001 RMK A01 T03170103  RH  027%=      5-min Rain = 0
KCR2 040402Z 17008KT 32/10 A3001 RMK A01 T03170104  RH  027%=      5-min Rain = 0
KCR2 040403Z 18009KT 32/10 A3001 RMK A01 T03160103  RH  027%=      5-min Rain = 0
KCR2 040404Z 17009KT 32/10 A3001 RMK A01 T03150104  RH  027%=      5-min Rain = 0
KCR2 040405Z 17009KT 32/10 A3001 RMK A01 T03150104  RH  027%=      5-min Rain = 0
KCR2 040406Z 17009KT 32/10 A3002 RMK A01 T03150104  RH  027%=      5-min Rain = 0
KCR2 040407Z 18009KT 31/10 A3002 RMK A01 T03140104  RH  027%=      5-min Rain = 0
KCR2 040408Z 18009KT 31/11 A3002 RMK A01 T03140105  RH  028%=      5-min Rain = 0
KCR2 040409Z 18009KT 31/11 A3002 RMK A01 T03140105  RH  028%=      5-min Rain = 0
KCR2 040410Z 17010KT 31/11 A3002 RMK A01 T03130106  RH  028%=      5-min Rain = 0
KCR2 040411Z 17008KT 31/11 A3002 RMK A01 T03130106  RH  028%=      5-min Rain = 0
KCR2 040412Z 17009KT 31/11 A3002 RMK A01 T03130106  RH  028%=      5-min Rain = 0
KCR2 040413Z 17008KT 31/11 A3002 RMK A01 T03130106  RH  028%=      5-min Rain = 0
KCR2 040414Z 17008KT 31/11 A3002 RMK A01 T03130107  RH  028%=      5-min Rain = 0
KCR2 040415Z 18008KT 31/11 A3002 RMK A01 T03120107  RH  028%=      5-min Rain = 0
KCR2 040416Z 18008KT 31/11 A3002 RMK A01 T03110107  RH  029%=      5-min Rain = 0
KCR2 040417Z 18007KT 31/11 A3002 RMK A01 T03110108  RH  029%=      5-min Rain = 0
KCR2 040418Z 17008KT 31/11 A3002 RMK A01 T03110108  RH  029%=      5-min Rain = 0
KCR2 040419Z 18008KT 31/11 A3002 RMK A01 T03110109  RH  029%=      5-min Rain = 0
KCR2 040420Z 17008KT 31/11 A3002 RMK A01 T03110110  RH  029%=      5-min Rain = 0
KCR2 040421Z 18009KT 31/11 A3002 RMK A01 T03110111  RH  029%=      5-min Rain = 0
KCR2 040422Z 18010KT 31/11 A3002 RMK A01 T03110112  RH  029%=      5-min Rain = 0
KCR2 040423Z 18011KT 31/11 A3002 RMK A01 T03110113  RH  030%=      5-min Rain = 0
KCR2 040424Z 18010KT 31/11 A3002 RMK A01 T03110113  RH  030%=      5-min Rain = 0
KCR2 040425Z 18012KT 31/11 A3002 RMK A01 T03110114  RH  030%=      5-min Rain = 0
KCR2 040426Z 17012KT 31/11 A3002 RMK A01 T03110114  RH  030%=      5-min Rain = 0
KCR2 040427Z 17010KT 31/12 A3002 RMK A01 T03110115  RH  030%=      5-min Rain = 0
KCR2 040428Z 17009KT 31/11 A3002 RMK A01 T03110114  RH  030%=      5-min Rain = 0
KCR2 040429Z 18009KT 31/11 A3002 RMK A01 T03100114  RH  030%=      5-min Rain = 0
KCR2 040430Z 18011KT 31/12 A3002 RMK A01 T03090115  RH  030%=      5-min Rain = 0
KCR2 040431Z 17011KT 31/12 A3002 RMK A01 T03090116  RH  030%=      5-min Rain = 0
KCR2 040432Z 18009KT 31/12 A3002 RMK A01 T03090116  RH  030%=      5-min Rain = 0
KCR2 040433Z 17010KT 31/12 A3002 RMK A01 T03090116  RH  030%=      5-min Rain = 0
KCR2 040434Z 18010KT 31/12 A3002 RMK A01 T03090116  RH  031%=      5-min Rain = 0
KCR2 040435Z 18010KT 31/12 A3002 RMK A01 T03090116  RH  031%=      5-min Rain = 0
KCR2 040436Z 18011KT 31/12 A3002 RMK A01 T03090116  RH  031%=      5-min Rain = 0
KCR2 040437Z 18010KT 31/12 A3002 RMK A01 T03090117  RH  031%=      5-min Rain = 0
KCR2 040438Z 18009KT 31/12 A3002 RMK A01 T03090117  RH  031%=      5-min Rain = 0
KCR2 040439Z 18010KT 31/12 A3002 RMK A01 T03090117  RH  031%=      5-min Rain = 0
KCR2 040440Z 18011KT 31/12 A3002 RMK A01 T03080117  RH  031%=      5-min Rain = 0
KCR2 040441Z 18010KT 31/12 A3002 RMK A01 T03080118  RH  031%=      5-min Rain = 0
KCR2 040442Z 18009KT 31/12 A3002 RMK A01 T03080117  RH  031%=      5-min Rain = 0
KCR2 040443Z 18009KT 31/12 A3002 RMK A01 T03070118  RH  031%=      5-min Rain = 0
KCR2 040444Z 18008KT 31/12 A3002 RMK A01 T03060118  RH  031%=      5-min Rain = 0
KCR2 040445Z 18010KT 31/12 A3002 RMK A01 T03060118  RH  031%=      5-min Rain = 0
KCR2 040446Z 17010KT 31/12 A3002 RMK A01 T03060118  RH  032%=      5-min Rain = 0
KCR2 040447Z 18010KT 31/12 A3002 RMK A01 T03060118  RH  032%=      5-min Rain = 0
KCR2 040448Z 17009KT 31/12 A3002 RMK A01 T03070119  RH  032%=      5-min Rain = 0
KCR2 040449Z 17010KT 31/12 A3002 RMK A01 T03060119  RH  032%=      5-min Rain = 0
KCR2 040450Z 17010KT 31/12 A3002 RMK A01 T03060119  RH  032%=      5-min Rain = 0
KCR2 040451Z 17010KT 31/12 A3002 RMK A01 T03060119  RH  032%=      5-min Rain = 0
KCR2 040452Z 17009KT 31/12 A3003 RMK A01 T03060119  RH  032%=      5-min Rain = 0
KCR2 040453Z 17009KT 31/12 A3003 RMK A01 T03060120  RH  032%=      5-min Rain = 0
KCR2 040454Z 17010KT 31/12 A3003 RMK A01 T03060121  RH  032%=      5-min Rain = 0
KCR2 040455Z 17012KT 31/12 A3002 RMK A01 T03050121  RH  032%=      5-min Rain = 0
KCR2 040456Z 18010KT 31/12 A3003 RMK A01 T03050122  RH  032%=      5-min Rain = 0
KCR2 040457Z 17009KT 31/12 A3003 RMK A01 T03050121  RH  032%=      5-min Rain = 0
KCR2 040458Z 17010KT 31/12 A3003 RMK A01 T03050121  RH  032%=      5-min Rain = 0
KCR2 040459Z 17009KT 31/12 A3002 RMK A01 T03050122  RH  033%=      5-min Rain = 0

Page generated in 0.1193 seconds.